Triathlon Etaples 2018

Epreuve sélectionnée:


M - Résultats Scratch

Filtre:

Partants Général Top 5



Recherche:

N° dossard
Nom
Club
M - Classement arrivée
Clt Athlète Nat. Club Temps Sexe Cat Nat #1 Vélo Vélo Cum #2 CaP Vélo T1 Vélo T2 CaP T1 CaP T2
1 227 PASTEUR Robin TRIATHLON CLUB DU MONTREUILLOIS 01:58:41 M (1e) Senior (1e) 00:18:03 (1e) 00:00:42 (4e) 01:00:46 (1e) 01:20:56 (1e) 00:00:37 (10e) 00:37:10 (5e) 00:30:23 (1e) 00:30:24 (2e) 00:18:10 (5e) 00:19:00 (5e) Partagez votre performance
2 89 DEBIL CAUX Victor BEAUVAIS TRIATHLON 01:59:51 M (2e) Senior (2e) 00:20:37 (11e) 00:00:42 (5e) 01:02:16 (4e) 01:24:56 (4e) 00:00:27 (1e) 00:34:29 (1e) 00:31:40 (5e) 00:30:36 (4e) 00:17:11 (1e) 00:17:19 (1e) Partagez votre performance
3 231 DIEMUNSCH Etienne TRIATHLON CLUB DU MONTREUILLOIS 02:02:24 M (3e) Senior (3e) 00:19:25 (3e) 00:00:48 (10e) 01:03:01 (6e) 01:24:36 (3e) 00:00:30 (3e) 00:37:18 (7e) 00:32:44 (12e) 00:30:18 (1e) 00:17:20 (2e) 00:19:59 (14e) Partagez votre performance
4 223 RENARD Emmanuel TRIATHLON CLUB DU MONTREUILLOIS 02:02:32 M (4e) Senior (4e) 00:19:24 (2e) 00:00:45 (6e) 01:02:39 (5e) 01:24:18 (2e) 00:00:46 (55e) 00:37:29 (8e) 00:31:23 (4e) 00:31:16 (6e) 00:18:27 (8e) 00:19:03 (6e) Partagez votre performance
5 181 MISEROLE Lucas ROUEN TRIATHLON 02:05:57 M (5e) Senior (5e) 00:20:06 (5e) 00:00:48 (9e) 01:06:00 (13e) 01:28:11 (8e) 00:00:33 (6e) 00:37:13 (6e) 00:32:24 (8e) 00:33:36 (15e) 00:18:04 (3e) 00:19:10 (7e) Partagez votre performance
6 50 SAISON Antoine COTE D OPALE TRIATHLON CALAIS SAINT OMER 02:08:23 M (6e) Senior (6e) 00:22:24 (20e) 00:00:50 (11e) 01:01:58 (3e) 01:26:34 (5e) 00:00:32 (5e) 00:41:17 (28e) 00:31:04 (3e) 00:30:54 (5e) 00:20:18 (22e) 00:20:59 (31e) Partagez votre performance
7 195 GOSSE Nicolas TEAM GOFAST ARMENTIERES TRIATHLON 02:09:29 M (7e) Veteran (1e) 00:19:54 (4e) 00:00:40 (2e) 01:06:00 (14e) 01:28:04 (7e) 00:00:37 (11e) 00:40:49 (21e) 00:32:41 (11e) 00:33:20 (14e) 00:20:05 (18e) 00:20:45 (27e) Partagez votre performance
8 260 BERNARD Quentin 02:09:53 M (8e) Senior (7e) 00:23:24 (30e) 00:01:42 (112e) 01:01:10 (2e) 01:27:46 (6e) 00:00:47 (58e) 00:41:21 (29e) 00:30:34 (2e) 00:30:36 (3e) 00:21:04 (39e) 00:20:18 (18e) Partagez votre performance
9 132 QUEVAL Rémi GRAVELINES TRIATHLON 02:10:18 M (9e) Senior (8e) 00:21:07 (16e) 00:00:40 (1e) 01:05:06 (9e) 01:28:21 (9e) 00:00:31 (4e) 00:41:27 (31e) 00:32:27 (9e) 00:32:40 (9e) 00:20:17 (21e) 00:21:11 (34e) Partagez votre performance
10 94 DEWANCKELE Matthieu BEAUVAIS TRIATHLON 02:14:00 M (10e) Veteran (2e) 00:21:06 (15e) 00:00:53 (15e) 01:11:02 (53e) 01:34:43 (18e) 00:00:39 (21e) 00:38:40 (9e) 00:35:41 (62e) 00:35:22 (46e) 00:19:01 (10e) 00:19:39 (9e) Partagez votre performance
11 237 DESCAMPS Pascal TRIATHLON LITTORAL 59 02:14:07 M (11e) Veteran (3e) 00:23:07 (23e) 00:00:59 (21e) 01:08:30 (21e) 01:34:10 (17e) 00:00:50 (73e) 00:39:08 (10e) 00:34:29 (25e) 00:34:01 (22e) 00:19:29 (12e) 00:19:39 (10e) Partagez votre performance
12 100 VAAST Arnaud Belgian Triathlon & Duathlon Federation 02:14:48 M (12e) Veteran (4e) 00:21:05 (14e) 00:01:16 (48e) 01:06:32 (15e) 01:30:35 (10e) 00:01:21 (222e) 00:42:52 (41e) 00:33:27 (16e) 00:33:05 (12e) 00:21:38 (54e) 00:21:15 (35e) Partagez votre performance
13 164 DARTOIS Regis LOMME NATATION TRIATHLON 02:15:22 M (13e) Veteran (5e) 00:23:23 (28e) 00:01:24 (63e) 01:05:47 (12e) 01:32:02 (12e) 00:00:40 (25e) 00:42:41 (38e) 00:32:46 (14e) 00:33:01 (11e) 00:21:18 (45e) 00:21:23 (40e) Partagez votre performance
14 119 ROUCOUX David CLUB OLYMPIQUE DE LA BRESLE 02:15:43 M (14e) Veteran (6e) 00:24:33 (48e) 00:01:11 (42e) 01:08:05 (19e) 01:35:21 (19e) 00:00:37 (14e) 00:39:46 (14e) 00:33:56 (18e) 00:34:10 (25e) 00:19:48 (15e) 00:19:58 (13e) Partagez votre performance
15 182 FAUQUEMBERGUE Frederic SC ABBEVILLE TRIATHLON NATATION 02:15:45 M (15e) Senior (9e) 00:24:56 (55e) 00:01:14 (44e) 01:05:43 (11e) 01:33:34 (15e) 00:00:50 (76e) 00:41:22 (30e) 00:32:24 (7e) 00:33:19 (13e) 00:20:36 (28e) 00:20:47 (28e) Partagez votre performance
16 228 CARRIER Olivier TRIATHLON CLUB DU MONTREUILLOIS 02:15:58 M (16e) Veteran (7e) 00:23:21 (27e) 00:01:28 (74e) 01:07:45 (18e) 01:34:09 (16e) 00:00:52 (83e) 00:40:58 (23e) 00:33:57 (19e) 00:33:49 (18e) 00:20:37 (29e) 00:20:21 (19e) Partagez votre performance
17 103 DEVOS Simon Belgian Triathlon & Duathlon Federation 02:16:04 M (17e) Senior (10e) 00:20:31 (7e) 00:00:50 (12e) 01:08:30 (22e) 01:31:38 (11e) 00:00:41 (28e) 00:43:46 (56e) 00:34:37 (28e) 00:33:53 (19e) 00:21:32 (52e) 00:22:14 (58e) Partagez votre performance
18 171 ZIEMBA Matthieu MSA TRIATHLON 02:16:34 M (18e) Senior (11e) 00:20:33 (9e) 00:01:28 (72e) 01:08:31 (23e) 01:32:15 (13e) 00:00:37 (16e) 00:43:42 (52e) 00:34:46 (30e) 00:33:46 (17e) 00:21:47 (57e) 00:21:56 (49e) Partagez votre performance
19 331 RAMET Benoit 02:16:53 M (19e) Senior (12e) 00:24:20 (45e) 00:01:02 (23e) 01:12:34 (76e) 01:39:25 (40e) 00:00:41 (30e) 00:36:48 (3e) 00:36:09 (77e) 00:36:26 (79e) 00:18:10 (6e) 00:18:38 (4e) Partagez votre performance
20 118 SALOMÉ Louis CAMBRAI TRIATHLON 02:17:02 M (20e) Junior (1e) 00:20:13 (6e) 00:00:52 (13e) 01:10:56 (50e) 01:33:21 (14e) 00:00:28 (2e) 00:43:13 (45e) 00:35:21 (51e) 00:35:35 (53e) 00:21:27 (49e) 00:21:46 (48e) Partagez votre performance
21 258 PROFFIT Vincent WASQUEHAL TRIATHLON 02:17:14 M (21e) Senior (13e) 00:23:38 (37e) 00:01:16 (46e) 01:10:30 (46e) 01:36:58 (26e) 00:00:48 (66e) 00:39:28 (12e) 00:35:08 (46e) 00:35:22 (47e) 00:19:00 (9e) 00:20:29 (23e) Partagez votre performance
22 57 MARQUANT Christophe COTE D OPALE TRIATHLON CALAIS SAINT OMER 02:17:28 M (22e) Veteran (8e) 00:30:54 (253e) 00:02:10 (197e) 01:04:59 (8e) 01:39:55 (46e) 00:00:45 (53e) 00:36:50 (4e) 00:32:38 (10e) 00:32:21 (7e) 00:18:25 (7e) 00:18:25 (2e) Partagez votre performance
23 377 POUPART Pierre 02:17:39 M (23e) Senior (14e) 00:28:23 (168e) 00:02:21 (234e) 01:04:15 (7e) 01:36:53 (24e) 00:00:50 (75e) 00:39:58 (15e) 00:31:45 (6e) 00:32:31 (8e) 00:19:41 (13e) 00:20:17 (17e) Partagez votre performance
24 196 DESOEUVRE Damien TEAM GOFAST ARMENTIERES TRIATHLON 02:18:29 M (24e) Senior (15e) 00:22:26 (21e) 00:01:05 (28e) 01:13:17 (85e) 01:38:32 (37e) 00:00:37 (15e) 00:39:21 (11e) 00:36:48 (95e) 00:36:29 (82e) 00:19:14 (11e) 00:20:07 (16e) Partagez votre performance
25 183 MILAN Francois SC ABBEVILLE TRIATHLON NATATION 02:18:58 M (25e) Senior (16e) 00:24:39 (50e) 00:01:05 (29e) 01:09:03 (27e) 01:36:31 (22e) 00:00:44 (49e) 00:41:43 (33e) 00:34:55 (37e) 00:34:09 (24e) 00:20:50 (33e) 00:20:54 (30e) Partagez votre performance
26 192 DUSSERRE Romain TEAM GOFAST ARMENTIERES TRIATHLON 02:19:17 M (26e) Senior (17e) 00:23:48 (39e) 00:01:07 (33e) 01:09:09 (29e) 01:35:47 (21e) 00:00:44 (50e) 00:42:46 (40e) 00:35:01 (42e) 00:34:08 (23e) 00:21:16 (43e) 00:21:31 (43e) Partagez votre performance
27 151 BOTHIER Sébastien LILLE TRIATHLON 02:19:42 M (27e) Senior (18e) 00:26:52 (122e) 00:00:56 (19e) 01:09:56 (35e) 01:39:31 (42e) 00:00:39 (20e) 00:39:33 (13e) 00:35:16 (49e) 00:34:40 (30e) 00:19:56 (16e) 00:19:37 (8e) Partagez votre performance
28 1 PEYTOUR Olivia TEAM GOFAST ARMENTIERES TRIATHLON 02:20:09 F (1e) Senior (1e) 00:21:46 (18e) 00:00:48 (8e) 01:14:01 (104e) 01:38:08 (33e) 00:00:34 (7e) 00:41:28 (32e) 00:36:52 (102e) 00:37:09 (103e) 00:20:23 (23e) 00:21:06 (33e) Partagez votre performance
29 153 DELEU Martin LILLE TRIATHLON 02:20:56 M (28e) Senior (19e) 00:23:41 (38e) 00:01:22 (59e) 01:10:13 (41e) 01:37:00 (28e) 00:00:37 (13e) 00:43:20 (48e) 00:35:02 (43e) 00:35:11 (40e) 00:20:43 (32e) 00:22:37 (70e) Partagez votre performance
30 347 JOHNNY Marcourt 02:21:02 M (29e) Senior (20e) 00:25:49 (71e) 00:01:48 (124e) 01:09:12 (30e) 01:38:30 (36e) 00:01:36 (276e) 00:40:57 (22e) 00:34:24 (24e) 00:34:48 (33e) 00:20:31 (26e) 00:20:27 (22e) Partagez votre performance
31 96 VERDY Johann BEAUVAIS TRIATHLON 02:21:29 M (30e) Senior (21e) 00:23:52 (40e) 00:01:50 (134e) 01:09:56 (34e) 01:37:10 (30e) 00:01:06 (141e) 00:43:14 (46e) 00:34:48 (31e) 00:35:09 (39e) 00:20:56 (37e) 00:22:19 (61e) Partagez votre performance
32 219 RIFFLART Benoit TRIATHLON CLUB DU MONTREUILLOIS 02:21:36 M (31e) Senior (22e) 00:20:36 (10e) 00:00:42 (3e) 01:13:43 (97e) 01:36:32 (23e) 00:00:50 (77e) 00:44:14 (61e) 00:37:19 (121e) 00:36:25 (78e) 00:21:32 (51e) 00:22:43 (74e) Partagez votre performance
33 180 LEBRUN Louis ROUEN TRIATHLON 02:22:02 M (32e) Senior (23e) 00:25:39 (66e) 00:01:09 (37e) 01:12:01 (65e) 01:40:19 (51e) 00:00:38 (18e) 00:41:06 (26e) 00:36:21 (84e) 00:35:41 (55e) 00:20:33 (27e) 00:20:33 (24e) Partagez votre performance
34 83 BOUCKNOOGHE Benjamin ATHLETIC CLUB MARCQUOIS 02:22:17 M (33e) Veteran (9e) 00:27:28 (135e) 00:02:08 (189e) 01:09:02 (26e) 01:40:17 (49e) 00:01:28 (249e) 00:40:33 (19e) 00:34:02 (20e) 00:35:01 (35e) 00:20:12 (19e) 00:20:22 (20e) Partagez votre performance
35 232 LAW WAI Thierry TRIATHLON CLUB ST QUENTIN EN YVEL. 02:22:25 M (34e) Veteran (10e) 00:23:24 (29e) 00:01:47 (122e) 01:09:57 (36e) 01:37:00 (27e) 00:00:53 (93e) 00:44:33 (63e) 00:34:49 (32e) 00:35:08 (38e) 00:22:16 (68e) 00:22:17 (60e) Partagez votre performance
36 51 MARQUANT Ludovic COTE D OPALE TRIATHLON CALAIS SAINT OMER 02:22:43 M (35e) Senior (24e) 00:28:10 (162e) 00:02:35 (269e) 01:08:55 (25e) 01:41:21 (60e) 00:01:08 (154e) 00:40:14 (17e) 00:34:36 (27e) 00:34:20 (26e) 00:20:26 (24e) 00:19:49 (11e) Partagez votre performance
37 187 THERY Vincent SKWAL ATHLON 02:22:46 M (36e) Veteran (11e) 00:23:07 (24e) 00:00:57 (20e) 01:11:11 (56e) 01:36:54 (25e) 00:00:58 (107e) 00:44:55 (68e) 00:35:29 (53e) 00:35:43 (56e) 00:23:11 (98e) 00:21:44 (47e) Partagez votre performance
38 165 DELEFORGE Theo LOMME NATATION TRIATHLON 02:22:47 M (37e) Senior (25e) 00:25:43 (68e) 00:01:10 (39e) 01:12:25 (75e) 01:41:07 (57e) 00:00:40 (26e) 00:41:01 (24e) 00:36:12 (80e) 00:36:13 (70e) 00:20:55 (36e) 00:20:06 (15e) Partagez votre performance
39 163 POCHOLLE Thierry LOMME NATATION TRIATHLON 02:22:49 M (38e) Veteran (12e) 00:26:14 (89e) 00:01:50 (132e) 01:09:40 (33e) 01:39:41 (45e) 00:00:47 (60e) 00:42:22 (36e) 00:34:52 (35e) 00:34:49 (34e) 00:21:21 (47e) 00:21:02 (32e) Partagez votre performance
40 125 SETIFI Malik CRAZY AND TRI 02:22:52 M (39e) Senior (26e) 00:25:54 (77e) 00:01:04 (25e) 01:09:23 (31e) 01:38:02 (32e) 00:00:45 (54e) 00:44:06 (59e) 00:34:57 (39e) 00:34:27 (27e) 00:22:10 (67e) 00:21:56 (50e) Partagez votre performance
41 102 DEVOS Andreas Belgian Triathlon & Duathlon Federation 02:23:28 M (40e) Senior (27e) 00:27:01 (125e) 00:01:49 (129e) 01:08:51 (24e) 01:39:32 (43e) 00:01:04 (130e) 00:42:53 (42e) 00:34:23 (23e) 00:34:28 (28e) 00:21:31 (50e) 00:21:22 (39e) Partagez votre performance
42 150 DEKERLE Guillaume LILLE TRIATHLON 02:23:59 M (41e) Veteran (13e) 00:23:34 (32e) 00:01:45 (117e) 01:09:58 (37e) 01:37:02 (29e) 00:00:51 (80e) 00:46:07 (85e) 00:34:44 (29e) 00:35:15 (41e) 00:22:42 (84e) 00:23:26 (91e) Partagez votre performance
43 240 ROUILLERE Mickaël TRIATHLON ORCHIES PEVELE 02:24:13 M (42e) Veteran (14e) 00:21:23 (17e) 00:01:27 (67e) 01:15:23 (124e) 01:39:57 (48e) 00:01:04 (135e) 00:43:13 (44e) 00:37:37 (132e) 00:37:47 (120e) 00:21:08 (40e) 00:22:06 (55e) Partagez votre performance
44 179 MAUGER Sebastien ROUEN TRIATHLON 02:24:24 M (43e) Veteran (15e) 00:24:45 (51e) 00:01:20 (52e) 01:14:42 (115e) 01:42:28 (75e) 00:00:53 (89e) 00:41:04 (25e) 00:37:09 (115e) 00:37:34 (111e) 00:20:15 (20e) 00:20:50 (29e) Partagez votre performance
45 278 WASSON Anthony 02:24:34 M (44e) Senior (28e) 00:28:45 (192e) 00:02:03 (179e) 01:14:00 (103e) 01:46:52 (123e) 00:01:06 (145e) 00:36:37 (2e) 00:37:16 (118e) 00:36:44 (89e) 00:18:08 (4e) 00:18:29 (3e) Partagez votre performance
46 143 RONDEAU Christophe LES LIONS TRIATHLON 02:25:31 M (45e) Veteran (16e) 00:25:50 (72e) 00:01:37 (95e) 01:11:22 (58e) 01:40:34 (53e) 00:00:45 (51e) 00:44:14 (60e) 00:36:06 (74e) 00:35:16 (44e) 00:22:02 (64e) 00:22:12 (57e) Partagez votre performance
47 373 CASSAC Mathieu 02:25:37 M (46e) Senior (29e) 00:25:01 (58e) 00:03:48 (340e) 01:10:56 (51e) 01:41:35 (63e) 00:01:20 (209e) 00:42:43 (39e) 00:35:05 (44e) 00:35:52 (58e) 00:21:23 (48e) 00:21:21 (38e) Partagez votre performance
48 376 NOEL Nicolas 02:25:40 M (47e) Senior (30e) 00:27:35 (143e) 00:02:57 (304e) 01:07:07 (16e) 01:39:30 (41e) 00:01:07 (149e) 00:45:04 (69e) 00:33:22 (15e) 00:33:45 (16e) 00:21:53 (61e) 00:23:12 (85e) Partagez votre performance
49 155 CUVELIER Arnaud LILLE TRIATHLON 02:25:46 M (48e) Senior (31e) 00:25:04 (60e) 00:01:27 (71e) 01:16:51 (159e) 01:45:02 (98e) 00:00:39 (23e) 00:40:05 (16e) 00:38:08 (156e) 00:38:43 (166e) 00:19:42 (14e) 00:20:24 (21e) Partagez votre performance
50 120 NÉANT Ludovic CLUB OLYMPIQUE DE LA BRESLE 02:25:50 M (49e) Veteran (17e) 00:24:37 (49e) 00:01:21 (58e) 01:09:40 (32e) 01:37:11 (31e) 00:01:08 (152e) 00:47:32 (110e) 00:35:00 (41e) 00:34:40 (29e) 00:25:09 (183e) 00:22:23 (65e) Partagez votre performance
51 78 SABBE Stephane ATHLETIC CLUB MARCQUOIS 02:25:52 M (50e) Veteran (18e) 00:25:31 (62e) 00:01:31 (83e) 01:14:11 (107e) 01:42:53 (83e) 00:00:49 (72e) 00:42:10 (34e) 00:37:04 (112e) 00:37:07 (102e) 00:20:54 (35e) 00:21:17 (36e) Partagez votre performance
52 152 LAVISSE Romain LILLE TRIATHLON 02:26:05 M (51e) Senior (32e) 00:24:29 (47e) 00:01:16 (49e) 01:14:09 (106e) 01:41:30 (62e) 00:00:51 (79e) 00:43:45 (55e) 00:37:43 (136e) 00:36:27 (81e) 00:21:10 (41e) 00:22:35 (68e) Partagez votre performance
53 172 JOSQUIN Philippe MYTRIBE 02:26:05 M (52e) Veteran (19e) 00:23:54 (41e) 00:02:02 (178e) 01:12:01 (66e) 01:39:39 (44e) 00:01:13 (179e) 00:45:14 (72e) 00:36:06 (76e) 00:35:56 (60e) 00:22:17 (69e) 00:22:58 (77e) Partagez votre performance
54 104 DURNEZ Maarten Belgian Triathlon & Duathlon Federation 02:26:07 M (53e) Senior (33e) 00:29:40 (223e) 00:02:07 (186e) 01:10:09 (40e) 01:43:48 (92e) 00:01:06 (142e) 00:41:15 (27e) 00:34:51 (33e) 00:35:18 (45e) 00:20:41 (31e) 00:20:34 (25e) Partagez votre performance
55 340 SIS Charles-henri 02:26:16 M (54e) Senior (34e) 00:25:46 (69e) 00:01:55 (154e) 01:12:10 (70e) 01:41:23 (61e) 00:00:49 (67e) 00:44:05 (58e) 00:35:35 (56e) 00:36:35 (85e) 00:21:46 (56e) 00:22:19 (62e) Partagez votre performance
56 255 CABAREZ Alexis VALENCIENNES TRIATHLON 02:26:24 M (55e) Senior (35e) 00:28:48 (195e) 00:01:39 (98e) 01:10:15 (42e) 01:42:44 (79e) 00:01:08 (151e) 00:42:33 (37e) 00:35:09 (47e) 00:35:06 (37e) 00:21:14 (42e) 00:21:20 (37e) Partagez votre performance
57 22 CARON Sophie LYS CALAIS TRIATHLON 02:26:25 F (2e) Senior (2e) 00:22:59 (22e) 00:00:56 (18e) 01:16:49 (157e) 01:42:17 (68e) 00:00:42 (38e) 00:43:26 (49e) 00:38:15 (160e) 00:38:35 (156e) 00:21:18 (44e) 00:22:09 (56e) Partagez votre performance
58 349 GOURDIN Christian 02:26:31 M (56e) Veteran (20e) 00:27:31 (140e) 00:01:05 (27e) 01:09:04 (28e) 01:39:23 (39e) 00:00:41 (31e) 00:46:28 (92e) 00:34:18 (22e) 00:34:47 (32e) 00:22:49 (88e) 00:23:40 (101e) Partagez votre performance
59 256 BOURGAIN Ludovic VALENCIENNES TRIATHLON 02:26:59 M (57e) Veteran (21e) 00:32:47 (282e) 00:01:20 (54e) 01:07:26 (17e) 01:43:21 (86e) 00:01:29 (251e) 00:42:10 (35e) 00:33:31 (17e) 00:33:55 (20e) 00:20:40 (30e) 00:21:30 (42e) Partagez votre performance
60 268 LABY Ludovic 02:27:05 M (58e) Veteran (22e) 00:25:00 (57e) 00:02:37 (275e) 01:05:39 (10e) 01:35:22 (20e) 00:01:14 (182e) 00:50:29 (172e) 00:32:45 (13e) 00:32:54 (10e) 00:24:49 (176e) 00:25:40 (175e) Partagez votre performance
61 207 COURTOIS Ludovic TRIATHLON CLUB D`HAZEBROUCK 02:27:12 M (59e) Veteran (23e) 00:28:50 (196e) 00:00:54 (17e) 01:11:26 (60e) 01:42:55 (84e) 00:00:49 (69e) 00:43:29 (50e) 00:35:32 (55e) 00:35:54 (59e) 00:20:54 (34e) 00:22:36 (69e) Partagez votre performance
62 386 MIESZCZAK Cedric 02:28:01 M (60e) Veteran (24e) 00:30:44 (248e) 00:01:37 (96e) 01:08:17 (20e) 01:42:27 (73e) 00:00:56 (103e) 00:44:38 (64e) 00:34:17 (21e) 00:34:01 (21e) 00:22:39 (80e) 00:22:00 (51e) Partagez votre performance
63 354 POURIN Jean-lucien 02:28:03 M (61e) Senior (36e) 00:26:50 (121e) 00:01:41 (104e) 01:16:23 (146e) 01:46:56 (126e) 00:00:48 (65e) 00:40:20 (18e) 00:37:32 (130e) 00:38:52 (170e) 00:20:27 (25e) 00:19:53 (12e) Partagez votre performance
64 124 PARISOT Stéphane CRAZY AND TRI 02:28:20 M (62e) Veteran (25e) 00:30:52 (251e) 00:01:04 (26e) 01:10:05 (39e) 01:43:41 (90e) 00:01:03 (129e) 00:43:37 (51e) 00:35:19 (50e) 00:34:47 (31e) 00:21:54 (63e) 00:21:43 (46e) Partagez votre performance
65 259 HOTTINGER Julius DEU WILD TEAM TRIATHLON 02:28:25 M (63e) Senior (37e) 00:23:34 (33e) 00:01:28 (73e) 01:13:38 (95e) 01:40:33 (52e) 00:01:01 (124e) 00:46:52 (96e) 00:37:15 (117e) 00:36:23 (77e) 00:23:45 (124e) 00:23:07 (81e) Partagez votre performance
66 122 DUBOCQUET Franck CLUB OLYMPIQUE DE LA BRESLE 02:28:38 M (64e) Veteran (26e) 00:29:30 (219e) 00:01:08 (35e) 01:09:59 (38e) 01:42:27 (72e) 00:00:56 (102e) 00:45:16 (73e) 00:34:31 (26e) 00:35:28 (51e) 00:23:01 (93e) 00:22:15 (59e) Partagez votre performance
67 59 VALLES Morgan A.S. ETAPLES TRIATHLON 02:28:39 M (65e) Senior (38e) 00:27:39 (145e) 00:01:20 (53e) 01:12:56 (81e) 01:43:32 (88e) 00:01:25 (235e) 00:43:43 (53e) 00:35:37 (58e) 00:37:20 (106e) 00:22:03 (65e) 00:21:41 (45e) Partagez votre performance
68 263 LANTEZ Eric 02:28:45 M (66e) Veteran (27e) 00:26:45 (113e) 00:01:46 (120e) 01:10:55 (49e) 01:41:14 (59e) 00:01:02 (125e) 00:46:31 (93e) 00:34:57 (38e) 00:35:59 (63e) 00:23:05 (94e) 00:23:27 (92e) Partagez votre performance
69 239 CAULIER Guillaume TRIATHLON ORCHIES PEVELE 02:28:49 M (67e) Veteran (28e) 00:27:44 (150e) 00:02:06 (185e) 01:10:53 (48e) 01:42:34 (77e) 00:00:53 (94e) 00:45:23 (76e) 00:35:38 (61e) 00:35:15 (42e) 00:22:24 (72e) 00:22:59 (78e) Partagez votre performance
70 206 PROVOOST Victorien TRIATHLON CLUB D`HAZEBROUCK 02:29:04 M (68e) Senior (39e) 00:24:16 (43e) 00:01:10 (40e) 01:14:01 (105e) 01:41:08 (58e) 00:00:41 (35e) 00:47:16 (105e) 00:37:00 (109e) 00:37:01 (97e) 00:22:55 (89e) 00:24:22 (130e) Partagez votre performance
71 327 DEFRETIN Benoit 02:29:06 M (69e) Senior (40e) 00:27:39 (146e) 00:01:34 (92e) 01:12:51 (78e) 01:43:45 (91e) 00:01:38 (283e) 00:43:44 (54e) 00:36:05 (73e) 00:36:46 (90e) 00:21:19 (46e) 00:22:25 (66e) Partagez votre performance
72 233 CORTIER Johan TRIATHLON LITTORAL 59 02:29:47 M (70e) Veteran (29e) 00:24:18 (44e) 00:01:21 (55e) 01:15:03 (119e) 01:42:26 (71e) 00:00:56 (99e) 00:46:26 (91e) 00:37:49 (144e) 00:37:14 (105e) 00:23:46 (126e) 00:22:41 (72e) Partagez votre performance
73 136 MORTIER Armand GRAVELINES TRIATHLON 02:30:04 M (71e) Senior (41e) 00:24:02 (42e) 00:00:53 (14e) 01:12:02 (67e) 01:38:43 (38e) 00:00:38 (17e) 00:50:45 (179e) 00:35:30 (54e) 00:36:33 (84e) 00:24:14 (149e) 00:26:31 (204e) Partagez votre performance
74 368 TONNERRE Lucas 02:30:08 M (72e) Senior (42e) 00:26:16 (92e) 00:02:01 (174e) 01:12:55 (80e) 01:42:46 (80e) 00:01:06 (140e) 00:46:18 (90e) 00:35:51 (69e) 00:37:05 (100e) 00:22:05 (66e) 00:24:13 (123e) Partagez votre performance
75 254 COLIN Bruno VALENCIENNES TRIATHLON 02:30:10 M (73e) Veteran (30e) 00:26:17 (93e) 00:01:52 (137e) 01:10:53 (47e) 01:41:06 (56e) 00:00:56 (101e) 00:48:09 (129e) 00:35:38 (59e) 00:35:16 (43e) 00:23:59 (140e) 00:24:10 (121e) Partagez votre performance
76 144 DUHAMEL David LES PIRANHAS 02:30:20 M (74e) Veteran (31e) 00:20:41 (12e) 00:01:21 (56e) 01:17:21 (170e) 01:41:03 (55e) 00:01:17 (191e) 00:48:01 (126e) 00:38:47 (187e) 00:38:35 (153e) 00:23:40 (121e) 00:24:22 (128e) Partagez votre performance
77 75 BARDIN Eric ATHLETIC CLUB MARCQUOIS 02:30:29 M (75e) Veteran (32e) 00:25:40 (67e) 00:02:12 (208e) 01:12:56 (82e) 01:42:43 (78e) 00:00:49 (71e) 00:46:58 (99e) 00:36:34 (89e) 00:36:23 (76e) 00:23:28 (113e) 00:23:30 (93e) Partagez votre performance
78 90 BLERIOT Mathieu BEAUVAIS TRIATHLON 02:30:29 M (76e) Senior (43e) 00:26:18 (95e) 00:01:29 (75e) 01:11:09 (54e) 01:40:44 (54e) 00:01:00 (116e) 00:48:46 (140e) 00:35:42 (65e) 00:35:27 (50e) 00:23:26 (110e) 00:25:21 (161e) Partagez votre performance
79 234 MEISTER Clement TRIATHLON LITTORAL 59 02:30:42 M (77e) Senior (44e) 00:26:24 (97e) 00:00:47 (7e) 01:10:58 (52e) 01:39:55 (47e) 00:00:43 (44e) 00:50:05 (164e) 00:35:28 (52e) 00:35:30 (52e) 00:24:00 (142e) 00:26:05 (188e) Partagez votre performance
80 170 DISSAUX Romain MBDA TRIATHLON 02:30:44 M (78e) Senior (45e) 00:23:13 (25e) 00:01:31 (84e) 01:15:23 (125e) 01:41:53 (66e) 00:00:43 (41e) 00:48:08 (128e) 00:37:39 (133e) 00:37:45 (116e) 00:22:58 (90e) 00:25:10 (154e) Partagez votre performance
81 257 VALATX Sébastien VILLENEUVE D ASCQ TRIATHLON 02:30:54 M (79e) Senior (46e) 00:27:04 (126e) 00:01:16 (45e) 01:12:10 (71e) 01:42:27 (74e) 00:00:42 (39e) 00:47:45 (119e) 00:36:06 (75e) 00:36:04 (65e) 00:23:24 (108e) 00:24:22 (131e) Partagez votre performance
82 54 DUCHATEAU Nordine COTE D OPALE TRIATHLON CALAIS SAINT OMER 02:30:57 M (80e) Veteran (33e) 00:28:14 (165e) 00:01:10 (38e) 01:13:52 (101e) 01:44:52 (97e) 00:00:45 (52e) 00:45:21 (74e) 00:36:19 (83e) 00:37:33 (110e) 00:22:27 (73e) 00:22:55 (76e) Partagez votre performance
83 215 GOSSELIN Rudy TRIATHLON CLUB DU MONTREUILLOIS 02:31:07 M (81e) Senior (47e) 00:27:10 (127e) 00:01:21 (57e) 01:12:06 (68e) 01:42:13 (67e) 00:01:05 (137e) 00:47:49 (120e) 00:35:44 (66e) 00:36:22 (73e) 00:23:16 (103e) 00:24:34 (136e) Partagez votre performance
84 337 DUBOIS Olivier 02:31:31 M (82e) Veteran (34e) 00:27:58 (158e) 00:01:48 (128e) 01:10:17 (45e) 01:41:35 (64e) 00:01:15 (187e) 00:48:42 (139e) 00:34:53 (36e) 00:35:24 (49e) 00:25:18 (190e) 00:23:25 (90e) Partagez votre performance
85 115 MOITRY Pierre BERCK OPALE SUD TRIATHLON 02:31:39 M (83e) Veteran (35e) 00:29:55 (226e) 00:01:27 (69e) 01:14:21 (109e) 01:47:43 (133e) 00:00:37 (12e) 00:43:20 (47e) 00:36:50 (100e) 00:37:31 (109e) 00:21:50 (59e) 00:21:30 (41e) Partagez votre performance
86 201 GUYOT Remi TRIATHLON CLUB BOULONNAIS 02:31:55 M (84e) Senior (48e) 00:28:56 (204e) 00:01:05 (30e) 01:10:15 (43e) 01:42:25 (69e) 00:01:17 (195e) 00:48:14 (130e) 00:35:09 (48e) 00:35:06 (36e) 00:23:23 (107e) 00:24:52 (144e) Partagez votre performance
87 109 BOITEL Sebastien BERCK OPALE SUD TRIATHLON 02:32:01 M (85e) Senior (49e) 00:29:07 (210e) 00:01:39 (99e) 01:13:03 (83e) 01:45:37 (106e) 00:00:38 (19e) 00:45:47 (79e) 00:36:24 (86e) 00:36:40 (88e) 00:22:35 (78e) 00:23:12 (84e) Partagez votre performance
88 353 FRAMERY Maxime 02:32:01 M (86e) Senior (50e) 00:27:42 (149e) 00:02:23 (238e) 01:13:23 (90e) 01:45:20 (102e) 00:01:20 (208e) 00:45:22 (75e) 00:36:31 (88e) 00:36:53 (94e) 00:21:52 (60e) 00:23:31 (94e) Partagez votre performance
89 110 LECLERCQ Richard BERCK OPALE SUD TRIATHLON 02:32:02 M (87e) Veteran (36e) 00:26:33 (104e) 00:01:29 (79e) 01:13:23 (89e) 01:43:07 (85e) 00:00:53 (91e) 00:48:03 (127e) 00:36:09 (78e) 00:37:14 (104e) 00:25:22 (193e) 00:22:41 (73e) Partagez votre performance
90 168 BARROIS Cedric LYS CALAIS TRIATHLON 02:32:10 M (88e) Senior (51e) 00:27:29 (136e) 00:02:21 (235e) 01:13:26 (92e) 01:45:11 (100e) 00:01:32 (262e) 00:45:28 (77e) 00:36:55 (105e) 00:36:31 (83e) 00:23:07 (95e) 00:22:21 (64e) Partagez votre performance
91 213 MARCINIAK Christian TRIATHLON CLUB DE LIEVIN 02:32:17 M (89e) Veteran (37e) 00:25:54 (78e) 00:01:29 (78e) 01:13:38 (96e) 01:42:49 (82e) 00:01:00 (117e) 00:48:29 (135e) 00:36:35 (90e) 00:37:04 (98e) 00:23:47 (128e) 00:24:42 (139e) Partagez votre performance
92 379 TIRÉ Franck 02:32:52 M (90e) Veteran (38e) 00:26:40 (110e) 00:02:23 (242e) 01:15:31 (127e) 01:46:30 (118e) 00:01:33 (267e) 00:44:49 (67e) 00:37:31 (126e) 00:38:01 (133e) 00:22:23 (71e) 00:22:26 (67e) Partagez votre performance
93 364 DUPIRE Frederic 02:33:13 M (91e) Veteran (39e) 00:25:59 (80e) 00:01:42 (111e) 01:13:24 (91e) 01:42:49 (81e) 00:01:37 (278e) 00:48:48 (142e) 00:36:24 (85e) 00:37:00 (95e) 00:23:18 (104e) 00:25:31 (171e) Partagez votre performance
94 204 DEFONTAINE Thomas TRIATHLON CLUB D`HAZEBROUCK 02:33:14 M (92e) Senior (52e) 00:26:31 (102e) 00:01:45 (116e) 01:11:38 (61e) 01:41:38 (65e) 00:00:58 (110e) 00:50:39 (176e) 00:35:42 (64e) 00:35:57 (61e) 00:25:08 (182e) 00:25:31 (172e) Partagez votre performance
95 220 BASSEZ Guillaume TRIATHLON CLUB DU MONTREUILLOIS 02:33:15 M (93e) Senior (53e) 00:23:37 (36e) 00:01:33 (88e) 01:19:09 (203e) 01:45:59 (114e) 00:00:36 (9e) 00:46:42 (95e) 00:39:41 (215e) 00:39:29 (189e) 00:23:36 (116e) 00:23:06 (80e) Partagez votre performance
96 290 DEGEZELLE Stephane 02:33:26 M (94e) Veteran (40e) 00:24:55 (54e) 00:01:58 (163e) 01:16:50 (158e) 01:45:29 (103e) 00:00:49 (70e) 00:47:08 (101e) 00:38:24 (169e) 00:38:26 (147e) 00:23:12 (99e) 00:23:56 (110e) Partagez votre performance
97 247 PATY Benoit USA Triathlon 02:33:26 M (95e) Veteran (41e) 00:26:56 (123e) 00:01:24 (62e) 01:12:13 (72e) 01:42:26 (70e) 00:01:05 (138e) 00:49:55 (159e) 00:35:36 (57e) 00:36:37 (86e) 00:25:13 (186e) 00:24:43 (140e) Partagez votre performance
98 360 GOSSELIN Reynald 02:33:39 M (96e) Senior (54e) 00:26:27 (99e) 00:02:27 (250e) 01:16:11 (140e) 01:46:59 (127e) 00:01:00 (114e) 00:45:42 (78e) 00:37:41 (135e) 00:38:31 (150e) 00:22:33 (75e) 00:23:10 (82e) Partagez votre performance
99 323 SANTUNE Luc 02:33:54 M (97e) Senior (55e) 00:26:39 (109e) 00:01:24 (65e) 01:16:22 (145e) 01:46:00 (115e) 00:00:42 (37e) 00:47:13 (104e) 00:37:24 (124e) 00:38:58 (176e) 00:23:27 (112e) 00:23:47 (105e) Partagez votre performance
100 86 BALDERANI Vincent BEAUMONT TRIATHLON 02:34:02 M (98e) Veteran (42e) 00:26:45 (114e) 00:01:31 (85e) 01:13:21 (88e) 01:43:37 (89e) 00:01:11 (166e) 00:49:15 (148e) 00:36:35 (91e) 00:36:47 (93e) 00:24:18 (151e) 00:24:58 (146e) Partagez votre performance
101 88 COMMELIN Julien BEAUVAIS TRIATHLON 02:34:03 M (99e) Senior (56e) 00:27:29 (138e) 00:03:13 (325e) 01:16:24 (147e) 01:48:54 (154e) 00:01:22 (223e) 00:43:48 (57e) 00:38:14 (159e) 00:38:11 (138e) 00:21:44 (55e) 00:22:05 (54e) Partagez votre performance
102 154 MONTAGNE Ludovic LILLE TRIATHLON 02:34:05 M (100e) Senior (57e) 00:26:36 (107e) 00:01:32 (87e) 01:15:49 (133e) 01:45:53 (112e) 00:00:48 (62e) 00:47:25 (109e) 00:37:31 (128e) 00:38:19 (144e) 00:23:19 (105e) 00:24:07 (118e) Partagez votre performance
103 276 SALOMÉ Fred 02:34:11 M (101e) Veteran (43e) 00:30:32 (242e) 00:01:19 (51e) 01:12:54 (79e) 01:46:53 (124e) 00:00:44 (47e) 00:46:35 (94e) 00:35:54 (70e) 00:37:00 (96e) 00:22:48 (87e) 00:23:47 (107e) Partagez votre performance
104 382 LECOINTRE Jeremy 02:34:33 M (102e) Senior (58e) 00:31:11 (257e) 00:02:45 (287e) 01:12:43 (77e) 01:48:20 (142e) 00:01:25 (232e) 00:44:49 (66e) 00:36:41 (92e) 00:36:03 (64e) 00:21:37 (53e) 00:23:12 (86e) Partagez votre performance
105 123 FRETE Cedric CLUB OLYMPIQUE DE LA BRESLE 02:34:37 M (103e) Veteran (44e) 00:28:26 (172e) 00:01:07 (34e) 01:13:50 (100e) 01:45:12 (101e) 00:00:50 (78e) 00:48:35 (137e) 00:37:04 (113e) 00:36:47 (92e) 00:24:26 (155e) 00:24:10 (120e) Partagez votre performance
106 194 MÉNARD Christian TEAM GOFAST ARMENTIERES TRIATHLON 02:34:42 M (104e) Veteran (45e) 00:26:01 (81e) 00:01:43 (115e) 01:14:27 (111e) 01:44:03 (94e) 00:01:04 (133e) 00:49:36 (156e) 00:36:41 (93e) 00:37:46 (118e) 00:24:31 (160e) 00:25:06 (151e) Partagez votre performance
107 116 HORNE Mark British Triathlon Federation 02:35:05 M (105e) Veteran (46e) 00:22:01 (19e) 00:01:11 (41e) 01:13:20 (87e) 01:38:21 (35e) 00:00:57 (106e) 00:55:48 (260e) 00:37:02 (110e) 00:36:18 (72e) 00:27:00 (255e) 00:28:48 (266e) Partagez votre performance
108 99 LATOUR Alban Belgian Triathlon & Duathlon Federation 02:35:05 M (106e) Veteran (47e) 00:25:34 (64e) 00:01:29 (80e) 01:13:46 (98e) 01:42:30 (76e) 00:01:18 (205e) 00:51:18 (191e) 00:37:00 (108e) 00:36:47 (91e) 00:23:46 (125e) 00:27:32 (238e) Partagez votre performance
109 169 DELAY Bastien LYS CALAIS TRIATHLON 02:35:29 M (107e) Senior (59e) 00:28:54 (202e) 00:01:07 (32e) 01:12:14 (73e) 01:44:07 (95e) 00:00:43 (42e) 00:50:40 (177e) 00:35:49 (68e) 00:36:26 (80e) 00:24:29 (157e) 00:26:11 (192e) Partagez votre performance
110 68 COPIN Gregory ANT Antigua and Barbuda Triathlon Association 02:35:35 M (108e) Veteran (48e) 00:26:09 (87e) 00:01:46 (118e) 01:17:45 (178e) 01:47:31 (130e) 00:00:40 (27e) 00:47:24 (108e) 00:38:35 (177e) 00:39:11 (182e) 00:23:14 (101e) 00:24:11 (122e) Partagez votre performance
111 7 BEAUVAIS Sandra BEAUVAIS TRIATHLON 02:35:39 F (3e) Veteran (1e) 00:26:15 (91e) 00:02:12 (207e) 01:23:42 (253e) 01:54:01 (213e) 00:01:00 (113e) 00:40:40 (20e) 00:41:11 (251e) 00:42:31 (258e) 00:20:03 (17e) 00:20:37 (26e) Partagez votre performance
112 112 DESTAILLEUR Eric BERCK OPALE SUD TRIATHLON 02:35:48 M (109e) Veteran (49e) 00:25:48 (70e) 00:01:17 (50e) 01:16:01 (136e) 01:44:49 (96e) 00:01:01 (118e) 00:49:59 (161e) 00:38:03 (152e) 00:37:58 (129e) 00:24:30 (158e) 00:25:30 (168e) Partagez votre performance
113 209 LENIERE Eddy TRIATHLON CLUB D`HAZEBROUCK 02:36:00 M (110e) Senior (60e) 00:31:10 (256e) 00:01:32 (86e) 01:13:57 (102e) 01:48:20 (141e) 00:00:49 (68e) 00:46:53 (97e) 00:36:51 (101e) 00:37:06 (101e) 00:23:49 (130e) 00:23:04 (79e) Partagez votre performance
114 214 RIQUIER Christophe TRIATHLON CLUB DU MONTREUILLOIS 02:36:07 M (111e) Senior (61e) 00:23:35 (34e) 00:01:02 (24e) 01:11:52 (64e) 01:38:10 (34e) 00:00:52 (84e) 00:57:06 (278e) 00:36:15 (81e) 00:35:38 (54e) 00:27:08 (260e) 00:29:59 (286e) Partagez votre performance
115 139 GABRIELS Thierry ITU 02:36:11 M (112e) Veteran (50e) 00:28:44 (190e) 00:02:12 (206e) 01:16:38 (153e) 01:49:18 (160e) 00:00:52 (85e) 00:46:02 (84e) 00:37:59 (150e) 00:38:39 (159e) 00:23:13 (100e) 00:22:49 (75e) Partagez votre performance
116 205 NAYE Benoit TRIATHLON CLUB D`HAZEBROUCK 02:36:15 M (113e) Veteran (51e) 00:31:02 (254e) 00:02:25 (247e) 01:11:23 (59e) 01:46:55 (125e) 00:01:04 (134e) 00:48:17 (131e) 00:35:38 (60e) 00:35:46 (57e) 00:23:44 (123e) 00:24:33 (135e) Partagez votre performance
117 158 BONNIER Florian LILLE TRIATHLON 02:36:28 M (114e) Senior (62e) 00:26:47 (117e) 00:01:33 (89e) 01:16:45 (155e) 01:46:46 (121e) 00:01:58 (321e) 00:47:44 (118e) 00:38:23 (168e) 00:38:22 (145e) 00:24:08 (145e) 00:23:37 (97e) Partagez votre performance
118 390 DELVILLE Eddy 02:36:28 M (115e) Veteran (52e) 00:25:03 (59e) 00:01:54 (148e) 01:16:54 (161e) 01:45:46 (108e) 00:00:44 (48e) 00:49:59 (160e) 00:38:53 (190e) 00:38:02 (135e) 00:24:50 (177e) 00:25:09 (153e) Partagez votre performance
119 235 DEBAVELAERE Laurent TRIATHLON LITTORAL 59 02:36:28 M (116e) Veteran (53e) 00:28:37 (183e) 00:02:11 (203e) 01:15:28 (126e) 01:48:16 (139e) 00:00:54 (97e) 00:47:19 (106e) 00:37:35 (131e) 00:37:53 (123e) 00:23:19 (106e) 00:24:00 (113e) Partagez votre performance
120 185 NEMPON Daniel SKWAL ATHLON 02:36:28 M (117e) Veteran (54e) 00:32:42 (280e) 00:01:38 (97e) 01:12:06 (69e) 01:48:26 (144e) 00:00:53 (90e) 00:47:11 (102e) 00:36:01 (71e) 00:36:06 (66e) 00:24:00 (141e) 00:23:11 (83e) Partagez votre performance
121 159 COLLET Cyril LILLE TRIATHLON 02:36:30 M (118e) Senior (63e) 00:23:37 (35e) 00:01:50 (133e) 01:16:36 (152e) 01:44:02 (93e) 00:01:25 (231e) 00:51:04 (188e) 00:38:51 (188e) 00:37:45 (117e) 00:25:41 (207e) 00:25:24 (165e) Partagez votre performance
122 313 CLAMOUSSE Sébastien 02:36:42 M (119e) Veteran (55e) 00:24:45 (52e) 00:01:43 (114e) 01:17:34 (175e) 01:45:57 (113e) 00:01:18 (199e) 00:49:28 (153e) 00:38:23 (167e) 00:39:11 (183e) 00:23:59 (139e) 00:25:29 (167e) Partagez votre performance
123 189 DUNAUD Olivier SMAC TRIATHLON 02:37:05 M (120e) Senior (64e) 00:25:51 (73e) 00:01:42 (109e) 01:18:38 (192e) 01:48:03 (135e) 00:01:04 (132e) 00:47:58 (125e) 00:39:30 (211e) 00:39:08 (181e) 00:23:53 (135e) 00:24:06 (117e) Partagez votre performance
124 222 COURTOIS Laurent TRIATHLON CLUB DU MONTREUILLOIS 02:37:07 M (121e) Veteran (56e) 00:26:22 (96e) 00:01:47 (123e) 01:13:30 (94e) 01:43:31 (87e) 00:01:00 (115e) 00:52:37 (214e) 00:36:52 (103e) 00:36:38 (87e) 00:25:38 (205e) 00:27:00 (223e) Partagez votre performance
125 226 BONNEL Tanguy TRIATHLON CLUB DU MONTREUILLOIS 02:37:14 M (122e) Senior (65e) 00:33:08 (291e) 00:01:47 (121e) 01:10:15 (44e) 01:47:18 (129e) 00:01:26 (236e) 00:48:31 (136e) 00:34:52 (34e) 00:35:24 (48e) 00:22:40 (83e) 00:25:51 (182e) Partagez votre performance
126 236 BOUCHERY Remi TRIATHLON LITTORAL 59 02:37:18 M (123e) Veteran (57e) 00:32:48 (283e) 00:01:24 (64e) 01:14:13 (108e) 01:50:14 (171e) 00:00:48 (64e) 00:46:18 (89e) 00:36:49 (99e) 00:37:24 (107e) 00:22:40 (82e) 00:23:38 (100e) Partagez votre performance
127 391 ITICSOHN Kevin 02:37:22 M (124e) Senior (66e) 00:29:02 (207e) 00:02:16 (219e) 01:14:59 (116e) 01:48:08 (136e) 00:01:42 (296e) 00:47:33 (111e) 00:37:06 (114e) 00:37:54 (126e) 00:23:37 (117e) 00:23:57 (112e) Partagez votre performance
128 92 GRZES Ludovic BEAUVAIS TRIATHLON 02:37:46 M (125e) Veteran (58e) 00:27:15 (129e) 00:01:55 (153e) 01:15:08 (120e) 01:46:02 (116e) 00:00:53 (92e) 00:50:52 (185e) 00:37:17 (119e) 00:37:51 (121e) 00:25:41 (208e) 00:25:12 (156e) Partagez votre performance
129 97 LOGGHE Herve BEAUVAIS TRIATHLON 02:37:55 M (126e) Veteran (59e) 00:26:15 (90e) 00:01:53 (143e) 01:16:34 (149e) 01:46:37 (120e) 00:00:59 (111e) 00:50:20 (169e) 00:37:39 (134e) 00:38:56 (175e) 00:24:33 (163e) 00:25:48 (179e) Partagez votre performance
130 178 MOULIN Alexis RONCHIN ATHLETIC CLUB 02:38:01 M (127e) Senior (67e) 00:28:05 (160e) 00:01:16 (47e) 01:14:41 (114e) 01:45:50 (110e) 00:01:13 (176e) 00:51:00 (186e) 00:36:48 (94e) 00:37:54 (127e) 00:25:36 (203e) 00:25:24 (164e) Partagez votre performance
131 198 MENET Eric TOBESPORT 02:38:16 M (128e) Veteran (60e) 00:34:49 (316e) 00:01:05 (31e) 01:11:44 (62e) 01:49:20 (161e) 00:01:16 (189e) 00:47:41 (117e) 00:35:46 (67e) 00:35:59 (62e) 00:23:27 (111e) 00:24:15 (125e) Partagez votre performance
132 299 BERTHE André 02:38:20 M (129e) Veteran (61e) 00:31:18 (259e) 00:02:16 (224e) 01:17:04 (163e) 01:52:36 (194e) 00:01:14 (180e) 00:44:31 (62e) 00:38:19 (163e) 00:38:46 (168e) 00:21:53 (62e) 00:22:39 (71e) Partagez votre performance
133 128 CALDIER Olivier ENTENTE SPORTIVE RENAULT 02:38:21 M (130e) Veteran (62e) 00:28:27 (174e) 00:02:15 (215e) 01:19:18 (207e) 01:52:04 (187e) 00:01:32 (261e) 00:44:45 (65e) 00:39:16 (206e) 00:40:02 (204e) 00:22:45 (86e) 00:22:01 (52e) Partagez votre performance
134 329 SIMON Pierre 02:38:25 M (131e) Senior (68e) 00:27:29 (137e) 00:02:15 (218e) 01:17:21 (169e) 01:48:52 (152e) 00:00:34 (8e) 00:49:01 (144e) 00:38:40 (182e) 00:38:42 (163e) 00:23:52 (134e) 00:25:09 (152e) Partagez votre performance
135 147 GOSSE Michel LILLE TRIATHLON 02:38:30 M (132e) Veteran (63e) 00:20:53 (13e) 00:02:14 (214e) 01:15:14 (121e) 01:40:17 (50e) 00:01:22 (224e) 00:56:52 (275e) 00:37:28 (125e) 00:37:46 (119e) 00:28:01 (285e) 00:28:51 (268e) Partagez votre performance
136 384 RETAILLEAU Valentin 02:38:34 M (133e) Senior (69e) 00:29:20 (214e) 00:02:02 (177e) 01:17:59 (182e) 01:51:22 (179e) 00:01:03 (127e) 00:46:10 (86e) 00:38:44 (185e) 00:39:16 (185e) 00:22:28 (74e) 00:23:42 (102e) Partagez votre performance
137 283 MONDON Pascal 02:38:43 M (134e) Veteran (64e) 00:30:09 (230e) 00:01:34 (93e) 01:15:39 (128e) 01:49:42 (165e) 00:01:04 (131e) 00:47:57 (124e) 00:37:22 (123e) 00:38:17 (143e) 00:23:40 (120e) 00:24:18 (126e) Partagez votre performance
138 161 VIEREN Franck LOMME NATATION TRIATHLON 02:38:47 M (135e) Veteran (65e) 00:28:44 (189e) 00:01:22 (60e) 01:17:47 (180e) 01:49:44 (166e) 00:01:27 (239e) 00:47:37 (115e) 00:38:27 (172e) 00:39:20 (186e) 00:23:37 (118e) 00:24:00 (114e) Partagez votre performance
139 2 DUCROCQ Ines TEAM GOFAST ARMENTIERES TRIATHLON 02:38:52 F (4e) Senior (3e) 00:25:35 (65e) 00:01:00 (22e) 01:17:19 (167e) 01:45:30 (104e) 00:00:51 (81e) 00:52:32 (212e) 00:38:53 (191e) 00:38:27 (148e) 00:25:43 (211e) 00:26:49 (215e) Partagez votre performance
140 230 PETIT Benoit TRIATHLON CLUB DU MONTREUILLOIS 02:39:04 M (136e) Junior (2e) 00:29:22 (215e) 00:02:00 (166e) 01:13:49 (99e) 01:46:49 (122e) 00:01:12 (171e) 00:51:04 (187e) 00:36:16 (82e) 00:37:34 (112e) 00:25:46 (215e) 00:25:19 (160e) Partagez votre performance
141 106 LEGAT Guillaume Belgian Triathlon & Duathlon Federation 02:39:09 M (137e) Senior (70e) 00:29:36 (221e) 00:02:21 (232e) 01:13:14 (84e) 01:47:16 (128e) 00:01:49 (308e) 00:50:05 (165e) 00:36:52 (104e) 00:36:23 (74e) 00:24:42 (170e) 00:25:23 (163e) Partagez votre performance
142 249 COTTRET Jerome USA Triathlon 02:39:09 M (138e) Veteran (66e) 00:28:51 (197e) 00:02:04 (181e) 01:18:06 (187e) 01:50:56 (176e) 00:01:08 (155e) 00:47:06 (100e) 00:39:00 (197e) 00:39:07 (180e) 00:23:30 (114e) 00:23:36 (96e) Partagez votre performance
143 388 COQUELLE Alexis 02:39:16 M (139e) Senior (71e) 00:27:31 (139e) 00:04:24 (347e) 01:18:58 (199e) 01:52:38 (196e) 00:01:34 (269e) 00:45:05 (70e) 00:38:01 (151e) 00:40:57 (229e) 00:21:49 (58e) 00:23:16 (87e) Partagez votre performance
144 369 MOREL Julien 02:39:19 M (140e) Senior (72e) 00:26:45 (115e) 00:02:14 (212e) 01:19:33 (209e) 01:50:22 (172e) 00:01:24 (227e) 00:47:34 (113e) 00:39:14 (203e) 00:40:20 (213e) 00:23:51 (133e) 00:23:44 (103e) Partagez votre performance
145 114 BEVOLO Romain BERCK OPALE SUD TRIATHLON 02:39:21 M (141e) Senior (73e) 00:23:26 (31e) 00:01:54 (149e) 01:17:52 (181e) 01:45:10 (99e) 00:00:44 (45e) 00:53:28 (236e) 00:38:58 (195e) 00:38:55 (174e) 00:24:56 (179e) 00:28:33 (258e) Partagez votre performance
146 80 BOGART Philippe ATHLETIC CLUB MARCQUOIS 02:39:24 M (142e) Veteran (67e) 00:28:25 (171e) 00:01:41 (107e) 01:16:14 (143e) 01:48:30 (147e) 00:01:27 (243e) 00:49:28 (152e) 00:37:45 (140e) 00:38:29 (149e) 00:24:32 (161e) 00:24:56 (145e) Partagez votre performance
147 203 POIRIEZ Marc TRIATHLON CLUB D`HAZEBROUCK 02:39:28 M (143e) Veteran (68e) 00:27:49 (154e) 00:01:30 (81e) 01:16:35 (150e) 01:47:47 (134e) 00:01:13 (177e) 00:50:28 (171e) 00:38:20 (164e) 00:38:16 (142e) 00:24:41 (169e) 00:25:47 (178e) Partagez votre performance
148 271 MORIAUX Olivier 02:39:30 M (144e) Veteran (69e) 00:26:30 (100e) 00:02:39 (280e) 01:20:08 (218e) 01:51:10 (178e) 00:00:41 (36e) 00:47:40 (116e) 00:39:54 (223e) 00:40:14 (211e) 00:23:10 (97e) 00:24:30 (133e) Partagez votre performance
149 229 BOCAERT Philippe TRIATHLON CLUB DU MONTREUILLOIS 02:39:58 M (145e) Veteran (70e) 00:27:16 (130e) 00:01:42 (108e) 01:15:00 (118e) 01:45:46 (109e) 00:00:53 (88e) 00:53:20 (230e) 00:36:56 (106e) 00:38:05 (137e) 00:25:37 (204e) 00:27:44 (243e) Partagez votre performance
150 53 MARTEL Cyril COTE D OPALE TRIATHLON CALAIS SAINT OMER 02:40:22 M (146e) Veteran (71e) 00:30:42 (246e) 00:02:07 (188e) 01:16:54 (160e) 01:51:47 (184e) 00:01:02 (126e) 00:47:34 (112e) 00:38:07 (155e) 00:38:47 (169e) 00:23:49 (131e) 00:23:45 (104e) Partagez votre performance
151 61 PROVIN Mickael A.S. ETAPLES TRIATHLON 02:40:36 M (147e) Veteran (72e) 00:32:51 (285e) 00:02:18 (228e) 01:11:14 (57e) 01:48:13 (138e) 00:00:58 (109e) 00:51:26 (193e) 00:34:58 (40e) 00:36:16 (71e) 00:25:44 (214e) 00:25:42 (176e) Partagez votre performance
152 188 DUFLOS Laurent SKWAL ATHLON 02:40:38 M (148e) Veteran (73e) 00:27:47 (152e) 00:00:53 (16e) 01:15:53 (134e) 01:46:35 (119e) 00:00:43 (40e) 00:53:22 (233e) 00:37:18 (120e) 00:38:35 (154e) 00:24:55 (178e) 00:28:28 (255e) Partagez votre performance
153 245 VERMEULEN Jean USA Triathlon 02:40:44 M (149e) Veteran (74e) 00:28:45 (191e) 00:02:10 (198e) 01:19:36 (210e) 01:52:33 (193e) 00:00:53 (86e) 00:47:19 (107e) 00:39:28 (210e) 00:40:09 (207e) 00:23:25 (109e) 00:23:55 (109e) Partagez votre performance
154 193 MARMUSE Bertrand TEAM GOFAST ARMENTIERES TRIATHLON 02:40:55 M (150e) Veteran (75e) 00:29:29 (217e) 00:02:49 (291e) 01:11:52 (63e) 01:46:14 (117e) 00:01:29 (252e) 00:53:13 (227e) 00:35:41 (63e) 00:36:11 (69e) 00:26:07 (235e) 00:27:07 (225e) Partagez votre performance
155 177 GAMELIN Yves RONCHIN ATHLETIC CLUB 02:41:04 M (151e) Veteran (76e) 00:27:00 (124e) 00:02:17 (225e) 01:14:26 (110e) 01:45:37 (107e) 00:01:09 (158e) 00:54:19 (242e) 00:36:48 (97e) 00:37:38 (113e) 00:26:56 (251e) 00:27:24 (235e) Partagez votre performance
156 264 MEREAUX Christophe 02:41:33 M (152e) Veteran (77e) 00:30:10 (231e) 00:02:42 (284e) 01:18:41 (194e) 01:53:30 (210e) 00:01:11 (165e) 00:46:53 (98e) 00:39:11 (201e) 00:39:31 (191e) 00:22:40 (81e) 00:24:14 (124e) Partagez votre performance
157 305 DELATTRE Raphaël 02:41:40 M (153e) Senior (74e) 00:33:00 (288e) 00:02:53 (298e) 01:16:35 (151e) 01:54:23 (222e) 00:01:18 (202e) 00:46:00 (83e) 00:38:42 (184e) 00:37:54 (125e) 00:22:44 (85e) 00:23:17 (88e) Partagez votre performance
158 425 BASSEMENT Yohann A.S. ETAPLES TRIATHLON 02:41:41 M (154e) Senior (75e) 00:30:08 (229e) 00:02:11 (200e) 01:19:51 (216e) 01:54:04 (215e) 00:01:28 (246e) 00:46:10 (87e) 00:39:26 (209e) 00:40:25 (216e) 00:22:36 (79e) 00:23:35 (95e) Partagez votre performance
159 396 MOYART Jean 02:41:42 M (155e) Senior (76e) 00:32:19 (271e) 00:02:43 (286e) 01:17:35 (176e) 01:54:13 (219e) 00:01:37 (279e) 00:45:52 (81e) 00:38:56 (193e) 00:38:39 (160e) 00:22:35 (77e) 00:23:18 (89e) Partagez votre performance
160 208 LAURENT Sebastien TRIATHLON CLUB D`HAZEBROUCK 02:41:48 M (156e) Veteran (78e) 00:33:13 (296e) 00:02:55 (301e) 01:16:05 (137e) 01:54:05 (216e) 00:01:32 (263e) 00:46:11 (88e) 00:37:52 (147e) 00:38:13 (141e) 00:22:34 (76e) 00:23:38 (98e) Partagez votre performance
161 46 LEBEURRE Elodie 02:41:51 F (5e) Senior (4e) 00:28:29 (177e) 00:01:54 (150e) 01:16:13 (141e) 01:48:31 (149e) 00:01:06 (143e) 00:52:15 (206e) 00:38:11 (157e) 00:38:02 (134e) 00:25:47 (218e) 00:26:29 (203e) Partagez votre performance
162 191 LEOST Yann TCA EVREUX 02:41:56 M (157e) Veteran (79e) 00:28:13 (164e) 00:03:02 (309e) 01:17:15 (165e) 01:50:35 (174e) 00:01:11 (167e) 00:50:11 (166e) 00:38:33 (175e) 00:38:42 (164e) 00:24:35 (165e) 00:25:36 (173e) Partagez votre performance
163 134 HENEMAN Jean michel GRAVELINES TRIATHLON 02:42:02 M (158e) Veteran (80e) 00:28:56 (205e) 00:01:43 (113e) 01:15:40 (129e) 01:48:12 (137e) 00:01:24 (229e) 00:52:27 (210e) 00:37:44 (138e) 00:37:56 (128e) 00:25:46 (216e) 00:26:41 (208e) Partagez votre performance
164 81 SAMAILLE Benoit ATHLETIC CLUB MARCQUOIS 02:42:11 M (159e) Veteran (81e) 00:24:50 (53e) 00:02:35 (268e) 01:19:01 (200e) 01:48:22 (143e) 00:01:34 (268e) 00:52:16 (207e) 00:39:11 (200e) 00:39:51 (197e) 00:25:34 (202e) 00:26:43 (209e) Partagez votre performance
165 328 PRUVOST Pierre 02:42:20 M (160e) Senior (77e) 00:29:05 (209e) 00:02:18 (229e) 01:17:08 (164e) 01:50:32 (173e) 00:01:11 (168e) 00:50:38 (175e) 00:38:32 (173e) 00:38:37 (158e) 00:24:34 (164e) 00:26:05 (187e) Partagez votre performance
166 77 BENE Jerome ATHLETIC CLUB MARCQUOIS 02:42:32 M (161e) Veteran (82e) 00:26:04 (84e) 00:01:57 (158e) 01:20:02 (217e) 01:50:00 (169e) 00:01:09 (160e) 00:51:23 (192e) 00:40:05 (227e) 00:39:58 (201e) 00:25:24 (194e) 00:26:00 (185e) Partagez votre performance
167 400 CARON François 02:42:39 M (162e) Senior (78e) 00:32:59 (287e) 00:01:49 (130e) 01:17:25 (172e) 01:54:06 (217e) 00:00:44 (46e) 00:47:50 (121e) 00:38:52 (189e) 00:38:33 (152e) 00:23:15 (102e) 00:24:35 (137e) Partagez votre performance
168 339 SCHOUTEETEN Thomas 02:42:39 M (163e) Senior (79e) 00:25:53 (76e) 00:02:02 (176e) 01:19:44 (212e) 01:49:25 (162e) 00:00:48 (63e) 00:52:28 (211e) 00:39:49 (220e) 00:39:55 (199e) 00:25:42 (210e) 00:26:46 (212e) Partagez votre performance
169 253 LOOR Nicolas VAL AA THLON SWIM,BIKE,RUN 02:42:46 M (164e) Senior (80e) 00:26:34 (105e) 00:01:27 (70e) 01:18:38 (193e) 01:48:33 (150e) 00:00:47 (57e) 00:53:28 (234e) 00:38:40 (181e) 00:39:59 (202e) 00:25:09 (184e) 00:28:19 (252e) Partagez votre performance
170 69 CARDON Philippe ARTOIS TRIATHLON BRUAY LA BUISSIERE 02:42:49 M (165e) Veteran (83e) 00:28:24 (170e) 00:01:53 (144e) 01:17:33 (174e) 01:49:39 (163e) 00:00:57 (105e) 00:52:14 (205e) 00:38:41 (183e) 00:38:52 (171e) 00:25:30 (200e) 00:26:44 (210e) Partagez votre performance
171 200 PERRIN Frédéric TRIATHLON CLUB BOULONNAIS 02:42:56 M (166e) Senior (81e) 00:31:37 (266e) 00:01:52 (138e) 01:14:31 (112e) 01:50:00 (168e) 00:01:10 (162e) 00:51:47 (200e) 00:36:49 (98e) 00:37:43 (114e) 00:25:20 (191e) 00:26:27 (202e) Partagez votre performance
172 395 BECART Alexandre 02:42:58 M (167e) Senior (82e) 00:31:27 (261e) 00:02:30 (258e) 01:18:33 (190e) 01:54:16 (221e) 00:01:30 (256e) 00:47:13 (103e) 00:39:50 (221e) 00:38:43 (167e) 00:23:09 (96e) 00:24:04 (116e) Partagez votre performance
173 366 SAVAGE Alexis 02:43:04 M (168e) Veteran (84e) 00:24:28 (46e) 00:02:09 (194e) 01:17:23 (171e) 01:45:52 (111e) 00:01:09 (159e) 00:56:04 (265e) 00:38:21 (165e) 00:39:02 (179e) 00:27:28 (269e) 00:28:37 (261e) Partagez votre performance
174 212 DEBAS Eric TRIATHLON CLUB DE LIEVIN 02:43:11 M (169e) Veteran (85e) 00:27:20 (132e) 00:01:55 (155e) 01:17:15 (166e) 01:48:29 (146e) 00:02:06 (336e) 00:52:37 (213e) 00:38:16 (162e) 00:39:00 (177e) 00:26:30 (242e) 00:26:07 (189e) Partagez votre performance
175 275 LAVOGEZ John 02:43:15 M (170e) Senior (83e) 00:26:30 (101e) 00:01:27 (68e) 01:22:17 (239e) 01:52:01 (186e) 00:00:53 (95e) 00:50:22 (170e) 00:40:58 (245e) 00:41:19 (233e) 00:23:57 (136e) 00:26:25 (198e) Partagez votre performance
176 242 GONTIER Julien USA Triathlon 02:43:33 M (171e) Senior (84e) 00:26:35 (106e) 00:02:18 (226e) 01:18:04 (183e) 01:48:56 (155e) 00:02:00 (324e) 00:52:39 (215e) 00:39:12 (202e) 00:38:53 (173e) 00:26:05 (233e) 00:26:34 (205e) Partagez votre performance
177 282 DUHAMEL Valentin 02:43:38 M (172e) Senior (85e) 00:34:18 (309e) 00:02:56 (302e) 01:12:23 (74e) 01:51:25 (181e) 00:01:25 (233e) 00:50:50 (182e) 00:36:01 (72e) 00:36:23 (75e) 00:25:38 (206e) 00:25:12 (157e) Partagez votre performance
178 399 JEAN Rozenthal 02:43:42 M (173e) Veteran (86e) 00:28:24 (169e) 00:03:51 (341e) 01:15:14 (122e) 01:49:40 (164e) 00:02:08 (339e) 00:51:55 (202e) 00:37:31 (127e) 00:37:44 (115e) 00:25:29 (198e) 00:26:26 (201e) Partagez votre performance
179 157 VIDALENC Eric LILLE TRIATHLON 02:43:43 M (174e) Senior (86e) 00:32:34 (273e) 00:02:21 (233e) 01:15:00 (117e) 01:51:51 (185e) 00:01:20 (207e) 00:50:33 (174e) 00:36:58 (107e) 00:38:02 (136e) 00:24:44 (172e) 00:25:50 (180e) Partagez votre performance
180 130 LEBRIEZ Christophe EVREUX AC. TRIATHLON 02:43:45 M (175e) Veteran (87e) 00:31:34 (265e) 00:02:14 (213e) 01:15:41 (130e) 01:51:27 (183e) 00:00:41 (34e) 00:51:37 (196e) 00:37:02 (111e) 00:38:40 (161e) 00:24:47 (175e) 00:26:51 (216e) Partagez votre performance
181 367 RAMON Bertrand 02:44:08 M (176e) Senior (87e) 00:32:39 (278e) 00:01:52 (140e) 01:17:27 (173e) 01:53:45 (211e) 00:00:58 (108e) 00:49:26 (151e) 00:38:57 (194e) 00:38:31 (151e) 00:24:09 (147e) 00:25:17 (159e) Partagez votre performance
182 315 OUALI Thomas 02:44:19 M (177e) Senior (88e) 00:28:53 (201e) 00:02:30 (257e) 01:19:05 (202e) 01:52:26 (192e) 00:02:05 (335e) 00:49:49 (158e) 00:38:33 (174e) 00:40:33 (220e) 00:24:39 (166e) 00:25:11 (155e) Partagez votre performance
183 304 VAN CAEMERBEKE Jérôme 02:44:20 M (178e) Veteran (88e) 00:32:37 (275e) 00:02:50 (292e) 01:15:46 (131e) 01:53:04 (201e) 00:01:46 (303e) 00:49:31 (154e) 00:37:45 (141e) 00:38:01 (132e) 00:24:28 (156e) 00:25:04 (149e) Partagez votre performance
184 121 RAMUS Patrick CLUB OLYMPIQUE DE LA BRESLE 02:44:21 M (179e) Veteran (89e) 00:32:38 (276e) 00:03:13 (323e) 01:16:29 (148e) 01:55:05 (227e) 00:01:39 (287e) 00:47:37 (114e) 00:37:49 (143e) 00:38:40 (162e) 00:23:51 (132e) 00:23:47 (106e) Partagez votre performance
185 251 CACHERA Aurélien USA Triathlon 02:44:27 M (180e) Senior (89e) 00:25:54 (79e) 00:02:59 (306e) 01:18:06 (186e) 01:48:54 (153e) 00:01:18 (200e) 00:54:16 (241e) 00:39:24 (208e) 00:38:43 (165e) 00:27:18 (266e) 00:26:59 (222e) Partagez votre performance
186 149 MILLER Andrew LILLE TRIATHLON 02:44:28 M (181e) Veteran (90e) 00:28:55 (203e) 00:01:33 (90e) 01:22:40 (241e) 01:55:08 (228e) 00:01:01 (120e) 00:48:19 (132e) 00:40:50 (241e) 00:41:50 (245e) 00:24:23 (153e) 00:23:56 (111e) Partagez votre performance
187 67 ROSE Jean-christophe AMIENS TRIATHLON 02:44:31 M (182e) Veteran (91e) 00:32:35 (274e) 00:02:29 (253e) 01:20:36 (223e) 01:57:45 (256e) 00:00:56 (100e) 00:45:51 (80e) 00:40:16 (230e) 00:40:21 (214e) 00:23:31 (115e) 00:22:20 (63e) Partagez votre performance
188 343 ROZIERES Remi 02:44:34 M (183e) Senior (90e) 00:31:30 (262e) 00:02:40 (282e) 01:17:20 (168e) 01:53:22 (205e) 00:01:33 (265e) 00:49:40 (157e) 00:37:59 (149e) 00:39:21 (187e) 00:24:03 (143e) 00:25:38 (174e) Partagez votre performance
189 362 BLANC Antoine 02:44:38 M (184e) Senior (91e) 00:26:07 (86e) 00:01:55 (156e) 01:25:15 (275e) 01:55:12 (232e) 00:00:59 (112e) 00:48:28 (134e) 00:42:09 (282e) 00:43:06 (271e) 00:23:00 (92e) 00:25:28 (166e) Partagez votre performance
190 173 LEURENT Alexis PASTEL TRIATHLON SAINT QUENTIN 02:44:47 M (185e) Senior (92e) 00:30:45 (249e) 00:01:25 (66e) 01:21:23 (230e) 01:55:36 (240e) 00:01:20 (212e) 00:47:52 (122e) 00:41:19 (255e) 00:40:04 (206e) 00:23:48 (129e) 00:24:04 (115e) Partagez votre performance
191 371 ESTEVES Michel 02:44:47 M (186e) Veteran (92e) 00:26:49 (119e) 00:03:47 (339e) 01:20:50 (226e) 01:53:27 (209e) 00:02:12 (343e) 00:49:09 (145e) 00:40:38 (235e) 00:40:12 (209e) 00:24:23 (152e) 00:24:47 (142e) Partagez votre performance
192 352 IPEMBA Wilfried 02:45:28 M (187e) Senior (93e) 00:28:29 (176e) 00:01:52 (139e) 01:22:44 (242e) 01:55:15 (233e) 00:01:53 (314e) 00:48:21 (133e) 00:40:50 (240e) 00:41:55 (246e) 00:23:44 (122e) 00:24:37 (138e) Partagez votre performance
193 394 DUCROCQ Yves 02:45:30 M (188e) Veteran (93e) 00:35:21 (324e) 00:03:08 (316e) 01:14:39 (113e) 01:55:04 (226e) 00:01:38 (282e) 00:48:49 (143e) 00:36:48 (96e) 00:37:52 (122e) 00:24:30 (159e) 00:24:19 (127e) Partagez votre performance
194 146 PILLE Christophe LILLE TRIATHLON 02:45:31 M (189e) Veteran (94e) 00:28:41 (184e) 00:01:40 (103e) 01:19:21 (208e) 01:51:24 (180e) 00:01:17 (197e) 00:52:50 (219e) 00:39:40 (214e) 00:39:42 (194e) 00:25:57 (225e) 00:26:53 (218e) Partagez votre performance
195 142 VAUVELLE Thierry LES LIONS TRIATHLON 02:45:36 M (190e) Veteran (95e) 00:35:21 (323e) 00:02:13 (210e) 01:13:18 (86e) 01:53:08 (203e) 00:01:39 (285e) 00:50:50 (183e) 00:37:09 (116e) 00:36:10 (68e) 00:25:46 (217e) 00:25:04 (150e) Partagez votre performance
196 19 DELCHAMBRE Camille LOMME NATATION TRIATHLON 02:45:36 F (6e) Senior (5e) 00:27:48 (153e) 00:01:34 (91e) 01:24:16 (257e) 01:55:30 (236e) 00:00:51 (82e) 00:49:16 (149e) 00:42:44 (291e) 00:41:32 (238e) 00:24:44 (173e) 00:24:32 (134e) Partagez votre performance
197 393 VEZILIER Victor 02:45:49 M (191e) Senior (94e) 00:30:34 (244e) 00:02:05 (183e) 01:11:11 (55e) 01:45:33 (105e) 00:01:28 (248e) 00:58:49 (292e) 00:35:05 (45e) 00:36:06 (67e) 00:25:52 (221e) 00:32:57 (326e) Partagez votre performance
198 332 MATHON Thierry 02:46:01 M (192e) Veteran (96e) 00:28:43 (188e) 00:01:24 (61e) 01:18:08 (188e) 01:50:14 (170e) 00:01:17 (190e) 00:54:31 (245e) 00:38:38 (180e) 00:39:31 (190e) 00:26:57 (252e) 00:27:35 (239e) Partagez votre performance
199 286 MICHEL Aurélien 02:46:16 M (193e) Senior (95e) 00:39:14 (352e) 00:02:42 (285e) 01:15:56 (135e) 01:59:48 (269e) 00:01:21 (219e) 00:45:09 (71e) 00:37:45 (139e) 00:38:11 (140e) 00:23:37 (119e) 00:21:32 (44e) Partagez votre performance
200 43 HOURIEZ Justine 02:46:16 F (7e) Senior (6e) 00:26:07 (85e) 00:01:41 (106e) 01:18:53 (198e) 01:48:31 (148e) 00:00:46 (56e) 00:57:00 (276e) 00:39:22 (207e) 00:39:31 (192e) 00:27:49 (278e) 00:29:11 (271e) Partagez votre performance
201 270 MULER Frederic 02:46:29 M (194e) Veteran (97e) 00:25:32 (63e) 00:02:08 (192e) 01:18:53 (196e) 01:48:28 (145e) 00:01:46 (302e) 00:56:16 (268e) 00:39:04 (198e) 00:39:50 (196e) 00:27:48 (277e) 00:28:28 (256e) Partagez votre performance
202 307 DUMONT Georges 02:46:30 M (195e) Veteran (98e) 00:27:54 (157e) 00:02:28 (252e) 01:16:44 (154e) 01:49:05 (157e) 00:02:37 (355e) 00:54:49 (249e) 00:38:23 (166e) 00:38:22 (146e) 00:26:39 (244e) 00:28:10 (247e) Partagez votre performance
203 248 CAILLERETZ Guillaume USA Triathlon 02:46:33 M (196e) Veteran (99e) 00:27:39 (147e) 00:01:48 (127e) 01:19:13 (205e) 01:50:42 (175e) 00:01:21 (221e) 00:54:30 (244e) 00:38:59 (196e) 00:40:14 (210e) 00:27:56 (281e) 00:26:35 (207e) Partagez votre performance
204 342 LEMAN Vincent 02:46:58 M (197e) Veteran (100e) 00:29:04 (208e) 00:01:53 (145e) 01:25:12 (274e) 01:58:03 (258e) 00:01:01 (121e) 00:47:55 (123e) 00:41:43 (266e) 00:43:29 (280e) 00:23:46 (127e) 00:24:10 (119e) Partagez votre performance
205 363 TOULOT Vincent 02:46:59 M (198e) Veteran (101e) 00:20:33 (8e) 00:02:05 (184e) 01:23:09 (247e) 01:47:31 (131e) 00:01:15 (186e) 00:58:14 (286e) 00:41:24 (258e) 00:41:45 (244e) 00:28:42 (298e) 00:29:32 (277e) Partagez votre performance
206 56 DELEU Patrick COTE D OPALE TRIATHLON CALAIS SAINT OMER 02:47:15 M (199e) Veteran (102e) 00:33:12 (294e) 00:02:11 (201e) 01:17:36 (177e) 01:55:21 (234e) 00:01:24 (228e) 00:50:31 (173e) 00:38:35 (178e) 00:39:02 (178e) 00:24:41 (167e) 00:25:51 (181e) Partagez votre performance
207 281 LANGLAIS Julien 02:47:17 M (200e) Senior (96e) 00:33:12 (295e) 00:02:00 (172e) 01:15:21 (123e) 01:52:37 (195e) 00:01:21 (220e) 00:53:19 (229e) 00:37:51 (146e) 00:37:31 (108e) 00:25:31 (201e) 00:27:49 (244e) Partagez votre performance
208 267 BOUCHET Sébastien 02:47:20 M (201e) Senior (97e) 00:30:14 (234e) 00:03:01 (308e) 01:20:45 (225e) 01:56:08 (246e) 00:01:10 (163e) 00:50:03 (162e) 00:40:28 (233e) 00:40:18 (212e) 00:25:41 (209e) 00:24:22 (129e) Partagez votre performance
209 295 ROUMIGUIERE Rémi 02:47:37 M (202e) Senior (98e) 00:29:51 (225e) 00:02:23 (239e) 01:18:51 (195e) 01:52:58 (200e) 00:01:33 (266e) 00:53:07 (222e) 00:38:06 (154e) 00:40:46 (224e) 00:26:03 (232e) 00:27:05 (224e) Partagez votre performance
210 76 FEUILLET Alexandre ATHLETIC CLUB MARCQUOIS 02:47:40 M (203e) Veteran (103e) 00:29:14 (212e) 00:01:55 (152e) 01:19:50 (215e) 01:53:06 (202e) 00:00:41 (29e) 00:53:54 (238e) 00:39:15 (204e) 00:40:35 (221e) 00:27:06 (258e) 00:26:49 (214e) Partagez votre performance
211 111 WADOUX Nicolas BERCK OPALE SUD TRIATHLON 02:47:40 M (204e) Veteran (104e) 00:27:24 (133e) 00:02:08 (190e) 01:20:42 (224e) 01:52:12 (189e) 00:01:07 (147e) 00:54:22 (243e) 00:39:55 (224e) 00:40:48 (227e) 00:25:44 (213e) 00:28:38 (262e) Partagez votre performance
212 85 WILLY Fordant BEAUMONT TRIATHLON 02:47:47 M (205e) Veteran (105e) 00:30:33 (243e) 00:02:23 (241e) 01:20:13 (220e) 01:55:31 (237e) 00:01:30 (258e) 00:50:47 (180e) 00:40:18 (231e) 00:39:56 (200e) 00:26:02 (230e) 00:24:45 (141e) Partagez votre performance
213 6 LAMOUROUX Sylvie BEAUMONT TRIATHLON 02:47:47 F (8e) Veteran (2e) 00:30:11 (232e) 00:02:05 (182e) 01:22:59 (245e) 01:57:04 (250e) 00:01:21 (216e) 00:49:24 (150e) 00:41:15 (252e) 00:41:44 (242e) 00:24:25 (154e) 00:24:59 (148e) Partagez votre performance
214 64 HAGNERÉ Fredéric A.S. ETAPLES TRIATHLON 02:47:51 M (206e) Veteran (106e) 00:33:28 (298e) 00:02:21 (236e) 01:18:37 (191e) 01:56:23 (247e) 00:01:15 (188e) 00:50:13 (167e) 00:38:46 (186e) 00:39:52 (198e) 00:24:43 (171e) 00:25:30 (170e) Partagez votre performance
215 359 CABASSA Julien 02:48:12 M (207e) Senior (99e) 00:37:38 (343e) 00:03:59 (344e) 01:16:17 (144e) 01:59:47 (268e) 00:02:28 (352e) 00:45:58 (82e) 00:37:43 (137e) 00:38:35 (155e) 00:22:20 (70e) 00:23:38 (99e) Partagez votre performance
216 365 BUISSART Laurent 02:48:25 M (208e) Senior (100e) 00:25:30 (61e) 00:02:38 (278e) 01:21:34 (234e) 01:51:27 (182e) 00:01:11 (169e) 00:55:48 (261e) 00:40:49 (239e) 00:40:46 (225e) 00:27:17 (264e) 00:28:31 (257e) Partagez votre performance
217 79 DENNEULIN Bertrand ATHLETIC CLUB MARCQUOIS 02:48:25 M (209e) Veteran (107e) 00:25:52 (74e) 00:02:00 (165e) 01:25:03 (270e) 01:54:37 (224e) 00:02:10 (341e) 00:51:40 (197e) 00:41:43 (265e) 00:43:20 (279e) 00:25:25 (195e) 00:26:16 (194e) Partagez votre performance
218 44 CAUDRELIER Sabine 02:48:38 F (9e) Veteran (3e) 00:26:18 (94e) 00:02:22 (237e) 01:22:19 (240e) 01:52:54 (199e) 00:01:07 (148e) 00:54:38 (246e) 00:41:18 (254e) 00:41:02 (230e) 00:27:10 (262e) 00:27:28 (237e) Partagez votre performance
219 167 BRICHE Stéphane LYS CALAIS TRIATHLON 02:48:49 M (210e) Veteran (108e) 00:26:32 (103e) 00:01:42 (110e) 01:19:03 (201e) 01:49:09 (158e) 00:00:55 (98e) 00:58:47 (289e) 00:38:27 (171e) 00:40:37 (222e) 00:28:17 (289e) 00:30:30 (297e) Partagez votre performance
220 351 DUCANDAS Franck 02:48:57 M (211e) Veteran (109e) 00:27:46 (151e) 00:02:16 (221e) 01:16:13 (142e) 01:48:17 (140e) 00:01:28 (247e) 00:59:14 (295e) 00:38:13 (158e) 00:38:00 (131e) 00:28:47 (299e) 00:30:27 (296e) Partagez votre performance
221 66 WATTRAINT Loic AMIENS TRIATHLON 02:49:03 M (212e) Veteran (110e) 00:28:33 (180e) 00:01:39 (101e) 01:17:01 (162e) 01:49:01 (156e) 00:01:43 (297e) 00:58:20 (287e) 00:38:25 (170e) 00:38:36 (157e) 00:28:07 (288e) 00:30:13 (290e) Partagez votre performance
222 277 THIERRY Dionet 02:49:11 M (213e) Veteran (111e) 00:28:01 (159e) 00:02:38 (277e) 01:19:40 (211e) 01:52:15 (190e) 00:01:09 (157e) 00:55:47 (259e) 00:39:16 (205e) 00:40:25 (215e) 00:27:12 (263e) 00:28:36 (259e) Partagez votre performance
223 375 LORGNET Benoit 02:49:12 M (214e) Veteran (112e) 00:28:10 (163e) 00:02:28 (251e) 01:15:47 (132e) 01:48:37 (151e) 00:01:53 (312e) 00:58:43 (288e) 00:37:49 (145e) 00:37:59 (130e) 00:28:25 (294e) 00:30:19 (294e) Partagez votre performance
224 224 TROLLE Julien TRIATHLON CLUB DU MONTREUILLOIS 02:49:17 M (215e) Senior (101e) 00:28:16 (166e) 00:02:08 (193e) 01:23:39 (251e) 01:56:07 (245e) 00:01:05 (136e) 00:52:07 (203e) 00:41:57 (277e) 00:41:42 (241e) 00:25:22 (192e) 00:26:45 (211e) Partagez votre performance
225 252 GRIGNON Michael VAL AA THLON SWIM,BIKE,RUN 02:49:26 M (216e) Veteran (113e) 00:31:31 (264e) 00:02:01 (173e) 01:21:34 (233e) 01:57:10 (251e) 00:01:07 (146e) 00:51:10 (189e) 00:40:44 (236e) 00:40:50 (228e) 00:25:13 (187e) 00:25:57 (184e) Partagez votre performance
226 338 POUILLE François 02:49:38 M (217e) Veteran (114e) 00:29:16 (213e) 00:01:58 (162e) 01:21:53 (238e) 01:55:11 (230e) 00:01:12 (172e) 00:53:16 (228e) 00:40:19 (232e) 00:41:34 (239e) 00:26:20 (241e) 00:26:56 (220e) Partagez votre performance
227 238 MEGAL Olivier TRIATHLON ORCHIES PEVELE 02:49:45 M (218e) Veteran (115e) 00:24:57 (56e) 00:01:57 (161e) 01:20:22 (221e) 01:49:11 (159e) 00:00:41 (32e) 00:59:54 (303e) 00:39:36 (213e) 00:40:47 (226e) 00:30:19 (322e) 00:29:35 (279e) Partagez votre performance
228 14 MESSAGER Alexandra EXPATRIES TRIATHLON CLUB 02:49:48 F (10e) Senior (7e) 00:28:17 (167e) 00:02:13 (209e) 01:24:26 (260e) 01:57:00 (249e) 00:01:14 (181e) 00:51:35 (195e) 00:41:59 (279e) 00:42:28 (253e) 00:25:51 (220e) 00:25:45 (177e) Partagez votre performance
229 350 ROGER Thomas 02:50:10 M (219e) Senior (102e) 00:26:25 (98e) 00:02:39 (279e) 01:24:50 (268e) 01:56:02 (244e) 00:01:27 (240e) 00:52:43 (216e) 00:36:12 (79e) 00:48:38 (340e) 00:24:59 (181e) 00:27:44 (242e) Partagez votre performance
230 389 HECQUET Guillaume 02:50:13 M (220e) Veteran (116e) 00:27:37 (144e) 00:01:57 (159e) 01:21:21 (229e) 01:52:50 (198e) 00:01:01 (123e) 00:56:23 (271e) 00:39:43 (218e) 00:41:38 (240e) 00:26:06 (234e) 00:30:17 (292e) Partagez votre performance
231 320 LIBERKOWSKI Luc 02:50:26 M (221e) Veteran (117e) 00:29:37 (222e) 00:02:35 (272e) 01:19:44 (213e) 01:54:00 (212e) 00:02:20 (349e) 00:54:07 (240e) 00:39:41 (216e) 00:40:03 (205e) 00:26:47 (248e) 00:27:20 (232e) Partagez votre performance
232 211 SZYMANSKI Francois TRIATHLON CLUB DE LIEVIN 02:50:50 M (222e) Senior (103e) 00:26:04 (83e) 00:02:00 (170e) 01:23:06 (246e) 01:53:14 (204e) 00:01:36 (277e) 00:56:01 (264e) 00:40:30 (234e) 00:42:37 (260e) 00:27:47 (276e) 00:28:15 (250e) Partagez votre performance
233 70 SKRZYPCZYK Olivier ARTOIS TRIATHLON BRUAY LA BUISSIERE 02:50:55 M (223e) Veteran (118e) 00:28:41 (185e) 00:01:29 (76e) 01:17:46 (179e) 01:49:59 (167e) 00:01:09 (156e) 00:59:48 (302e) 00:38:54 (192e) 00:38:53 (172e) 00:29:30 (311e) 00:30:18 (293e) Partagez votre performance
234 308 FRANCOIS Cédric 02:51:04 M (224e) Veteran (119e) 00:27:33 (141e) 00:02:25 (246e) 01:23:26 (250e) 01:55:12 (231e) 00:00:43 (43e) 00:55:10 (253e) 00:41:11 (249e) 00:42:16 (251e) 00:26:20 (240e) 00:28:51 (267e) Partagez votre performance
235 321 FOURNIER David 02:51:05 M (225e) Senior (104e) 00:28:47 (194e) 00:02:53 (297e) 01:24:16 (258e) 01:58:03 (257e) 00:01:20 (213e) 00:51:43 (199e) 00:42:08 (281e) 00:42:08 (249e) 00:24:33 (162e) 00:27:11 (227e) Partagez votre performance
236 324 REZE Julien 02:51:08 M (226e) Senior (105e) 00:38:01 (346e) 00:02:37 (273e) 01:18:23 (189e) 02:00:59 (278e) 00:01:30 (254e) 00:48:40 (138e) 00:38:38 (179e) 00:39:46 (195e) 00:24:11 (148e) 00:24:29 (132e) Partagez votre performance
237 336 BOURY Alexandre 02:51:17 M (227e) Veteran (120e) 00:27:34 (142e) 00:01:57 (160e) 01:21:41 (236e) 01:53:24 (207e) 00:01:39 (286e) 00:56:15 (267e) 00:41:11 (250e) 00:40:30 (219e) 00:26:55 (250e) 00:29:21 (276e) Partagez votre performance
238 63 DEGARDIN Laurent A.S. ETAPLES TRIATHLON 02:51:22 M (228e) Veteran (121e) 00:32:19 (270e) 00:02:54 (300e) 01:16:08 (139e) 01:53:23 (206e) 00:01:15 (183e) 00:56:46 (274e) 00:37:58 (148e) 00:38:11 (139e) 00:26:36 (243e) 00:30:10 (289e) Partagez votre performance
239 424 DEBRABANT Marc 02:51:54 M (229e) Veteran (122e) 00:31:46 (267e) 00:01:30 (82e) 01:18:53 (197e) 01:54:15 (220e) 00:01:40 (289e) 00:56:00 (263e) 00:37:48 (142e) 00:41:05 (231e) 00:26:58 (253e) 00:29:03 (269e) Partagez votre performance
240 357 DUPONCHELLE Emmanuel 02:52:00 M (230e) Veteran (123e) 00:34:25 (311e) 00:02:35 (270e) 01:13:29 (93e) 01:52:23 (191e) 00:02:01 (328e) 00:57:36 (281e) 00:36:25 (87e) 00:37:05 (99e) 00:27:33 (270e) 00:30:04 (288e) Partagez votre performance
241 175 PARENT Christophe RACING CLUB ARRAS TRIATHLON 02:52:06 M (231e) Veteran (124e) 00:23:18 (26e) 00:01:51 (135e) 01:26:58 (292e) 01:54:02 (214e) 00:01:47 (306e) 00:56:18 (269e) 00:42:52 (293e) 00:44:06 (289e) 00:28:01 (286e) 00:28:17 (251e) Partagez votre performance
242 335 BOUGON Florent 02:52:21 M (232e) Senior (106e) 00:30:23 (238e) 00:03:10 (317e) 01:33:13 (333e) 02:08:41 (317e) 00:00:39 (22e) 00:43:02 (43e) 00:45:20 (324e) 00:47:53 (337e) 00:21:01 (38e) 00:22:02 (53e) Partagez votre performance
243 318 MOREL Jean-pierre 02:52:30 M (233e) Veteran (125e) 00:26:49 (120e) 00:02:23 (240e) 01:21:23 (231e) 01:52:48 (197e) 00:01:49 (309e) 00:57:54 (285e) 00:40:01 (225e) 00:41:22 (235e) 00:28:20 (290e) 00:29:35 (278e) Partagez votre performance
244 135 MAGES Ludovic GRAVELINES TRIATHLON 02:52:46 M (234e) Veteran (126e) 00:26:45 (116e) 00:01:48 (126e) 01:26:45 (289e) 01:57:18 (255e) 00:00:47 (59e) 00:54:42 (247e) 00:42:28 (286e) 00:44:17 (291e) 00:24:44 (174e) 00:29:58 (285e) Partagez votre performance
245 141 VALLIERE Julien LES ALLIGATORS SEYNOD TRIATHLON 02:52:52 M (235e) Senior (107e) 00:36:51 (334e) 00:02:12 (204e) 01:16:07 (138e) 01:56:59 (248e) 00:01:08 (150e) 00:54:46 (248e) 00:38:15 (161e) 00:37:53 (124e) 00:25:44 (212e) 00:29:03 (270e) Partagez votre performance
246 108 MIESZANIEC Francois BERCK OPALE SUD TRIATHLON 02:53:05 M (236e) Senior (108e) 00:26:03 (82e) 00:01:36 (94e) 01:18:04 (184e) 01:47:35 (132e) 00:00:56 (104e) 01:04:35 (330e) 00:38:05 (153e) 00:40:00 (203e) 00:31:09 (331e) 00:33:27 (329e) Partagez votre performance
247 346 CARLIER Romain 02:53:24 M (237e) Senior (109e) 00:30:18 (236e) 00:02:58 (305e) 01:19:11 (204e) 01:54:38 (225e) 00:02:05 (333e) 00:56:43 (272e) 00:39:36 (212e) 00:39:36 (193e) 00:28:06 (287e) 00:28:37 (260e) Partagez votre performance
248 73 LEFEBVRE Cedric ATHLETIC CLUB MARCQUOIS 02:53:25 M (238e) Veteran (127e) 00:26:39 (108e) 00:02:40 (281e) 01:19:14 (206e) 01:51:02 (177e) 00:01:56 (317e) 01:00:28 (307e) 00:39:05 (199e) 00:40:09 (208e) 00:29:23 (306e) 00:31:05 (306e) Partagez votre performance
249 127 DUPAYAGE Christophe ENTENTE SPORTIVE RENAULT 02:53:31 M (239e) Senior (110e) 00:33:38 (299e) 00:03:28 (333e) 01:16:45 (156e) 01:55:55 (243e) 00:01:44 (299e) 00:55:52 (262e) 00:37:32 (129e) 00:39:13 (184e) 00:27:55 (280e) 00:27:58 (245e) Partagez votre performance
250 372 KAMMER Axel 02:53:42 M (240e) Senior (111e) 00:30:16 (235e) 00:03:13 (324e) 01:18:05 (185e) 01:53:25 (208e) 00:01:12 (174e) 00:59:06 (294e) 00:37:22 (122e) 00:40:44 (223e) 00:28:00 (284e) 00:31:06 (308e) Partagez votre performance
251 330 BERNARD Francis 02:53:44 M (241e) Veteran (128e) 00:30:19 (237e) 00:02:16 (223e) 01:25:07 (273e) 01:59:57 (271e) 00:01:29 (250e) 00:52:19 (208e) 00:42:14 (283e) 00:42:54 (268e) 00:25:57 (224e) 00:26:22 (197e) Partagez votre performance
252 273 HOLLEVILLE Yohann 02:53:57 M (242e) Veteran (129e) 00:34:35 (312e) 00:03:12 (321e) 01:21:42 (237e) 02:01:30 (280e) 00:02:14 (344e) 00:50:14 (168e) 00:39:42 (217e) 00:42:00 (247e) 00:25:16 (189e) 00:24:58 (147e) Partagez votre performance
253 117 HORNE Jason British Triathlon Federation 02:54:23 M (243e) Veteran (130e) 00:25:52 (75e) 00:01:29 (77e) 01:26:18 (283e) 01:55:31 (238e) 00:01:12 (173e) 00:57:41 (283e) 00:43:04 (297e) 00:43:15 (276e) 00:27:59 (283e) 00:29:42 (283e) Partagez votre performance
254 60 BECQUELIN Theo A.S. ETAPLES TRIATHLON 02:54:27 M (244e) Senior (112e) 00:32:39 (277e) 00:02:59 (307e) 01:22:55 (244e) 02:00:21 (273e) 00:01:24 (226e) 00:52:43 (217e) 00:40:46 (238e) 00:42:09 (250e) 00:25:28 (197e) 00:27:16 (231e) Partagez votre performance
255 9 NOTHUM Sophie BERCK OPALE SUD TRIATHLON 02:54:36 F (11e) Senior (8e) 00:27:52 (156e) 00:02:33 (265e) 01:28:55 (307e) 02:01:11 (279e) 00:01:18 (203e) 00:52:08 (204e) 00:43:15 (300e) 00:45:41 (311e) 00:25:59 (226e) 00:26:09 (190e) Partagez votre performance
256 241 ANDRIEUX Pierre USA Triathlon 02:54:48 M (245e) Senior (113e) 00:30:37 (245e) 00:02:32 (263e) 01:24:07 (256e) 01:59:22 (261e) 00:01:30 (257e) 00:53:57 (239e) 00:41:47 (269e) 00:42:20 (252e) 00:26:44 (245e) 00:27:14 (228e) Partagez votre performance
257 378 DOMISSE Emmanuel 02:55:02 M (246e) Veteran (131e) 00:28:35 (181e) 00:01:51 (136e) 01:19:45 (214e) 01:52:07 (188e) 00:02:00 (325e) 01:00:56 (313e) 00:38:34 (176e) 00:41:11 (232e) 00:28:52 (300e) 00:32:05 (318e) Partagez votre performance
258 87 HOUGUENADE Noel BEAUVAIS TRIATHLON 02:55:15 M (247e) Veteran (132e) 00:32:47 (281e) 00:02:00 (167e) 01:23:58 (255e) 02:00:45 (274e) 00:01:20 (211e) 00:53:12 (225e) 00:41:23 (257e) 00:42:36 (259e) 00:26:46 (247e) 00:26:26 (200e) Partagez votre performance
259 322 RABACHE Quentin 02:55:21 M (248e) Senior (114e) 00:28:35 (182e) 00:02:26 (249e) 01:28:41 (303e) 02:02:32 (284e) 00:02:06 (338e) 00:50:43 (178e) 00:43:57 (309e) 00:44:45 (297e) 00:24:09 (146e) 00:26:35 (206e) Partagez votre performance
260 292 ALLAERD Lambert 02:55:29 M (249e) Senior (115e) 00:30:52 (252e) 00:03:11 (320e) 01:28:57 (308e) 02:05:03 (297e) 00:01:17 (196e) 00:49:10 (146e) 00:41:48 (270e) 00:47:10 (329e) 00:23:00 (91e) 00:26:10 (191e) Partagez votre performance
261 341 TROFLEAU Dominique 02:56:10 M (250e) Veteran (133e) 00:30:27 (240e) 00:02:38 (276e) 01:24:31 (261e) 01:59:42 (267e) 00:01:17 (194e) 00:55:12 (254e) 00:41:26 (259e) 00:43:06 (269e) 00:27:37 (273e) 00:27:36 (240e) Partagez votre performance
262 383 VADCAR Christophe 02:57:13 M (251e) Veteran (134e) 00:30:24 (239e) 00:03:58 (343e) 01:28:19 (301e) 02:04:42 (291e) 00:01:06 (144e) 00:51:26 (194e) 00:42:59 (295e) 00:45:20 (305e) 00:25:14 (188e) 00:26:13 (193e) Partagez votre performance
263 300 CARON Julien 02:57:32 M (252e) Senior (116e) 00:30:29 (241e) 00:04:03 (345e) 01:26:29 (285e) 02:03:07 (286e) 00:01:40 (291e) 00:52:45 (218e) 00:41:38 (264e) 00:44:51 (298e) 00:25:49 (219e) 00:26:56 (221e) Partagez votre performance
264 48 DEROUSSEN Aurélie 02:57:35 F (12e) Veteran (4e) 00:27:51 (155e) 00:01:49 (131e) 01:30:39 (318e) 02:02:16 (282e) 00:01:26 (238e) 00:53:54 (237e) 00:45:23 (325e) 00:45:16 (304e) 00:26:12 (238e) 00:27:43 (241e) Partagez votre performance
265 13 ROEWEKAMP Mareike DEU EXPATRIES TRIATHLON CLUB 02:57:35 F (13e) Senior (9e) 00:27:17 (131e) 00:01:46 (119e) 01:24:40 (266e) 01:55:46 (241e) 00:01:10 (161e) 01:00:40 (310e) 00:41:02 (247e) 00:43:39 (281e) 00:29:25 (307e) 00:31:15 (311e) Partagez votre performance
266 65 APOSTOLY Vincent AMIENS TRIATHLON 02:57:37 M (253e) Veteran (135e) 00:27:41 (148e) 00:02:10 (199e) 01:23:22 (248e) 01:55:23 (235e) 00:02:06 (337e) 01:00:10 (304e) 00:40:53 (243e) 00:42:29 (255e) 00:28:32 (296e) 00:31:38 (314e) Partagez votre performance
267 261 CODRON Stephane 02:57:40 M (254e) Veteran (136e) 00:28:53 (200e) 00:02:31 (262e) 01:23:40 (252e) 01:57:13 (252e) 00:01:27 (244e) 00:59:00 (293e) 00:41:56 (276e) 00:41:44 (243e) 00:28:22 (293e) 00:30:39 (300e) Partagez votre performance
268 36 SANTUNE Mélanie 02:58:28 F (14e) Senior (10e) 00:33:54 (303e) 00:03:03 (311e) 01:28:53 (304e) 02:07:50 (312e) 00:01:08 (153e) 00:49:31 (155e) 00:44:21 (314e) 00:44:33 (295e) 00:24:41 (168e) 00:24:50 (143e) Partagez votre performance
269 294 MASSY Setphane 02:58:41 M (255e) Veteran (137e) 00:31:22 (260e) 00:02:46 (289e) 01:24:37 (265e) 02:00:53 (277e) 00:01:30 (253e) 00:56:20 (270e) 00:42:07 (280e) 00:42:30 (256e) 00:27:02 (256e) 00:29:18 (275e) Partagez votre performance
270 37 CLARRET Maurane 02:58:54 F (15e) Senior (11e) 00:30:43 (247e) 00:02:52 (296e) 01:32:24 (327e) 02:08:06 (314e) 00:02:02 (329e) 00:48:47 (141e) 00:46:12 (339e) 00:46:13 (320e) 00:24:58 (180e) 00:23:49 (108e) Partagez votre performance
271 314 CHATELAIN Loic 02:59:04 M (256e) Senior (117e) 00:33:01 (290e) 00:02:29 (254e) 01:28:18 (300e) 02:05:37 (300e) 00:01:47 (304e) 00:51:41 (198e) 00:42:23 (284e) 00:45:55 (316e) 00:26:12 (239e) 00:25:30 (169e) Partagez votre performance
272 74 JUDE Gerard ATHLETIC CLUB MARCQUOIS 02:59:08 M (257e) Veteran (138e) 00:26:11 (88e) 00:02:23 (244e) 01:24:59 (269e) 01:55:50 (242e) 00:02:03 (332e) 01:01:15 (317e) 00:41:52 (275e) 00:43:07 (272e) 00:29:45 (315e) 00:31:31 (313e) Partagez votre performance
273 4 RIBEIRO Valerie BEAUMONT TRIATHLON 02:59:13 F (16e) Veteran (5e) 00:31:15 (258e) 00:02:00 (171e) 01:29:29 (314e) 02:04:45 (293e) 00:01:20 (215e) 00:53:09 (224e) 00:43:43 (307e) 00:45:47 (313e) 00:25:53 (223e) 00:27:16 (229e) Partagez votre performance
274 291 SEBILLE Marc 02:59:16 M (258e) Veteran (139e) 00:37:15 (340e) 00:03:45 (338e) 01:24:36 (263e) 02:07:42 (309e) 00:01:32 (264e) 00:50:04 (163e) 00:41:46 (267e) 00:42:51 (264e) 00:24:08 (144e) 00:25:56 (183e) Partagez votre performance
275 62 GUERVILLE Laurent A.S. ETAPLES TRIATHLON 02:59:43 M (259e) Veteran (140e) 00:28:46 (193e) 00:02:08 (191e) 01:21:14 (227e) 01:54:07 (218e) 00:01:01 (122e) 01:04:36 (331e) 00:39:53 (222e) 00:41:21 (234e) 00:29:01 (303e) 00:35:36 (345e) Partagez votre performance
276 269 TIEGHEM Aurelien 02:59:45 M (260e) Senior (118e) 00:29:34 (220e) 00:03:37 (336e) 01:31:40 (323e) 02:06:53 (304e) 00:02:03 (330e) 00:50:50 (184e) 00:45:06 (321e) 00:46:34 (323e) 00:23:57 (137e) 00:26:53 (217e) Partagez votre performance
277 243 SOLAUX Eric USA Triathlon 02:59:51 M (261e) Veteran (141e) 00:32:51 (286e) 00:03:08 (313e) 01:20:13 (219e) 01:58:21 (259e) 00:01:57 (319e) 00:59:34 (299e) 00:39:44 (219e) 00:40:30 (218e) 00:27:47 (275e) 00:31:48 (315e) Partagez votre performance
278 333 POUPART Maxime 03:00:00 M (262e) Senior (119e) 00:33:39 (300e) 00:02:47 (290e) 01:26:50 (291e) 02:05:06 (298e) 00:01:34 (270e) 00:53:21 (232e) 00:42:44 (290e) 00:44:06 (290e) 00:26:10 (237e) 00:27:11 (226e) Partagez votre performance
279 380 PIGUET Eric 03:00:18 M (263e) Veteran (142e) 00:31:30 (263e) 00:04:29 (350e) 01:25:06 (272e) 02:03:04 (285e) 00:02:10 (342e) 00:55:04 (252e) 00:41:52 (274e) 00:43:15 (275e) 00:24:16 (150e) 00:30:49 (302e) Partagez votre performance
280 426 GATOIS Guillaume 03:00:18 M (264e) Senior (120e) 00:34:44 (313e) 00:01:39 (100e) 01:23:22 (249e) 02:01:54 (281e) 00:01:41 (292e) 00:56:45 (273e) 00:40:03 (226e) 00:43:20 (278e) 00:27:08 (259e) 00:29:37 (280e) Partagez votre performance
281 361 HOURIEZ Antoine 03:01:06 M (265e) Senior (121e) 00:31:59 (268e) 00:03:13 (322e) 01:24:43 (267e) 02:02:17 (283e) 00:01:45 (300e) 00:57:04 (277e) 00:41:33 (263e) 00:43:11 (274e) 00:28:20 (292e) 00:28:45 (265e) Partagez votre performance
282 162 DEBEUF Bernard LOMME NATATION TRIATHLON 03:01:23 M (266e) Veteran (143e) 00:28:51 (198e) 00:02:37 (274e) 01:21:35 (235e) 01:55:10 (229e) 00:01:59 (323e) 01:04:14 (327e) 00:40:06 (228e) 00:41:29 (237e) 00:29:26 (308e) 00:34:49 (340e) Partagez votre performance
283 348 QUANDALLE Christophe 03:01:23 M (267e) Veteran (144e) 00:33:49 (301e) 00:02:15 (217e) 01:21:32 (232e) 01:59:34 (263e) 00:01:05 (139e) 01:00:45 (311e) 00:40:09 (229e) 00:41:24 (236e) 00:30:51 (328e) 00:29:54 (284e) Partagez votre performance
284 288 CAMPION Boris 03:01:33 M (268e) Senior (122e) 00:31:07 (255e) 00:02:34 (266e) 01:28:55 (306e) 02:04:42 (292e) 00:01:59 (322e) 00:54:53 (250e) 00:44:35 (318e) 00:44:21 (293e) 00:27:33 (271e) 00:27:21 (234e) Partagez votre performance
285 138 BAGDASSARIAN Thomas ISSY TRIATHLON 03:01:36 M (269e) Senior (123e) 00:30:12 (233e) 00:02:01 (175e) 01:30:40 (319e) 02:04:56 (295e) 00:01:21 (217e) 00:55:20 (256e) 00:47:34 (350e) 00:43:06 (270e) 00:26:58 (254e) 00:28:23 (254e) Partagez votre performance
286 40 MELMIES Paul 03:02:13 M (270e) Senior (124e) 00:32:50 (284e) 00:02:31 (259e) 01:27:08 (293e) 02:04:39 (289e) 00:01:21 (218e) 00:56:14 (266e) 00:41:32 (262e) 00:45:36 (308e) 00:27:35 (272e) 00:28:40 (264e) Partagez votre performance
287 303 GRUSON Lucas 03:02:18 M (271e) Junior (3e) 00:26:43 (111e) 00:05:21 (353e) 01:20:32 (222e) 01:54:26 (223e) 00:01:03 (128e) 01:06:50 (342e) 00:41:10 (248e) 00:39:22 (188e) 00:35:52 (351e) 00:30:58 (304e) Partagez votre performance
288 199 DERACHE Remy TRIATHLON CLUB AVIONNAIS 03:02:28 M (272e) Veteran (145e) 00:27:13 (128e) 00:02:15 (216e) 01:29:22 (311e) 02:00:50 (276e) 00:01:15 (185e) 01:00:24 (306e) 00:43:46 (308e) 00:45:37 (309e) 00:29:28 (310e) 00:30:57 (303e) Partagez votre performance
289 27 MARCOTTE Emilie USA Triathlon 03:02:39 F (17e) Senior (12e) 00:28:43 (187e) 00:02:31 (261e) 01:34:34 (341e) 02:07:49 (311e) 00:01:42 (295e) 00:53:08 (223e) 00:46:28 (343e) 00:48:06 (339e) 00:25:53 (222e) 00:27:16 (230e) Partagez votre performance
290 91 LEBEL Pascal BEAUVAIS TRIATHLON 03:03:18 M (273e) Veteran (146e) 00:30:06 (228e) 00:02:12 (205e) 01:26:03 (282e) 02:00:47 (275e) 00:01:23 (225e) 01:01:09 (315e) 00:43:26 (302e) 00:42:38 (261e) 00:30:35 (324e) 00:30:35 (298e) Partagez votre performance
291 20 OHMANN Anne-valérie LOMME NATATION TRIATHLON 03:03:30 F (18e) Veteran (6e) 00:26:43 (112e) 00:01:13 (43e) 01:25:30 (279e) 01:55:35 (239e) 00:01:13 (175e) 01:06:43 (340e) 00:41:49 (271e) 00:43:41 (283e) 00:31:11 (333e) 00:35:33 (344e) Partagez votre performance
292 10 VANDEMAELE Perrine BERCK OPALE SUD TRIATHLON 03:03:34 F (19e) Senior (13e) 00:36:36 (332e) 00:02:09 (196e) 01:26:32 (287e) 02:07:15 (308e) 00:01:01 (119e) 00:55:18 (255e) 00:43:40 (306e) 00:42:52 (266e) 00:27:05 (257e) 00:28:14 (248e) Partagez votre performance
293 113 LEMATTRE David BERCK OPALE SUD TRIATHLON 03:03:34 M (274e) Senior (125e) 00:36:36 (331e) 00:02:07 (187e) 01:26:31 (286e) 02:07:15 (307e) 00:01:20 (214e) 00:54:59 (251e) 00:43:39 (305e) 00:42:53 (267e) 00:26:46 (246e) 00:28:14 (249e) Partagez votre performance
294 345 LOGER Gautier 03:03:50 M (275e) Veteran (147e) 00:28:32 (179e) 00:02:46 (288e) 01:25:05 (271e) 01:58:39 (260e) 00:01:35 (272e) 01:03:37 (323e) 00:41:01 (246e) 00:44:05 (288e) 00:30:24 (323e) 00:33:13 (328e) Partagez votre performance
295 287 CLEMENT Louis 03:03:50 M (276e) Senior (126e) 00:28:28 (175e) 00:03:39 (337e) 01:25:30 (278e) 01:59:39 (266e) 00:01:55 (316e) 01:02:16 (318e) 00:43:01 (296e) 00:42:29 (254e) 00:29:36 (313e) 00:32:40 (324e) Partagez votre performance
296 319 MAHIEU Bernard 03:03:57 M (277e) Veteran (148e) 00:35:11 (320e) 00:02:32 (264e) 01:29:27 (313e) 02:09:23 (320e) 00:01:39 (284e) 00:52:57 (221e) 00:44:27 (315e) 00:45:00 (300e) 00:26:02 (231e) 00:26:55 (219e) Partagez votre performance
297 250 ONYSZKO Francois USA Triathlon 03:03:58 M (278e) Veteran (149e) 00:37:50 (345e) 00:02:13 (211e) 01:27:21 (295e) 02:09:54 (322e) 00:01:43 (298e) 00:52:22 (209e) 00:43:23 (301e) 00:43:58 (286e) 00:26:01 (228e) 00:26:21 (196e) Partagez votre performance
298 358 CAMARO Yannick 03:04:45 M (279e) Senior (127e) 00:29:50 (224e) 00:03:17 (327e) 01:24:33 (262e) 01:59:55 (270e) 00:01:49 (310e) 01:03:02 (320e) 00:41:47 (268e) 00:42:46 (263e) 00:30:02 (319e) 00:33:01 (327e) Partagez votre performance
299 12 BERTHE Anita CONCORDE CLUB TRIATHLON ST SAULVE 03:04:56 F (20e) Veteran (7e) 00:33:00 (289e) 00:02:54 (299e) 01:34:26 (339e) 02:12:35 (335e) 00:01:35 (273e) 00:50:48 (181e) 00:47:05 (349e) 00:47:22 (330e) 00:25:26 (196e) 00:25:23 (162e) Partagez votre performance
300 3 GREMONT Sophie A.S. ETAPLES TRIATHLON 03:05:10 F (21e) Veteran (8e) 00:35:21 (325e) 00:02:34 (267e) 01:30:35 (317e) 02:10:19 (326e) 00:01:31 (259e) 00:53:20 (231e) 00:45:07 (322e) 00:45:29 (307e) 00:26:00 (227e) 00:27:20 (233e) Partagez votre performance
301 272 DESURMONT Timothée 03:05:14 M (280e) Senior (128e) 00:28:07 (161e) 00:01:53 (146e) 01:27:33 (297e) 01:59:39 (265e) 00:01:15 (184e) 01:04:22 (328e) 00:41:29 (260e) 00:46:04 (318e) 00:31:57 (340e) 00:32:25 (320e)